Another Hard Day at the Office Weather Stats

 
 
 

High monthly outside Temperature, 22.8 , C
Low monthly outside Temperature, -1.0 , C
High yearly outside Temperature, 30.9 , C
Low yearly outside Temperature, -2.2 , C

Low monthly barometer, 1001.1 , mb
High monthly barometer, 1028.0 , mb
Low yearly barometer, 975.0 , mb
High yearly barometer 1041.1 , mb

High wind speed, 25.0 , mph
Time of High wind speed, 21:37 , mph
High monthly wind speed, 47.0 , mph
High yearly wind speed, 55.0 , mph

 

 




3126
                    Temp     Hi    Low   Out    Dew  Wind  Wind   Wind    Hi    Hi   Wind   Heat    THW                Rain    Heat    Cool    In     In    In     In     In   In Air  Wind  Wind    ISS   Arc.
  Date    Time     Out   Temp   Temp   Hum    Pt. Speed   Dir    Run Speed   Dir  Chill  Index  Index   Bar    Rain  Rate    D-D     D-D    Temp   Hum    Dew   Heat    EMC Density  Samp   Tx   Recept  Int.
---------------------------------------------------------------------------------------------------------------------------------------------------------------------------------------------------------------
21/09/18   0:05   18.7   18.7   18.6    82   15.5  26.0     S   2.17  33.0     S   14.7   19.2   15.2  1000.9  0.00  0.00   0.000   0.001   25.0    61   17.0   25.5  11.01  .0716    115    1    100.0    5 
21/09/18   0:10   18.5   18.6   18.5    82   15.4  28.0     S   2.33  34.0     S   14.4   18.9   14.8  1000.7  0.00  0.00   0.000   0.001   25.0    62   17.2   25.6  11.21  .0716    117    1    100.0    5 
21/09/18   0:15   18.4   18.5   18.4    82   15.3  26.0     S   2.17  33.0     S   14.4   18.9   14.9  1000.5  0.00  0.00   0.000   0.000   25.0    62   17.2   25.6  11.21  .0716    117    1    100.0    5 
21/09/18   0:20   18.4   18.4   18.4    83   15.4  26.0     S   2.17  34.0   SSW   14.4   18.8   14.8  1000.3  0.00  0.00   0.000   0.000   25.0    62   17.2   25.6  11.21  .0716    116    1    100.0    5 
21/09/18   0:25   18.4   18.4   18.3    83   15.4  27.0     S   2.25  37.0   SSW   14.3   18.8   14.8  1000.1  0.00  0.00   0.000   0.000   25.0    62   17.2   25.6  11.21  .0716    117    1    100.0    5 
21/09/18   0:30   18.4   18.4   18.4    83   15.4  28.0     S   2.33  38.0     S   14.3   18.8   14.7   999.8  0.00  0.00   0.000   0.000   25.1    62   17.3   25.6  11.21  .0715    117    1    100.0    5 
21/09/18   0:35   18.4   18.4   18.4    83   15.4  30.0     S   2.50  41.0     S   14.1   18.8   14.6   999.4  0.00  0.00   0.000   0.000   25.1    62   17.3   25.7  11.21  .0715    117    1    100.0    5 
21/09/18   0:40   18.4   18.4   18.4    83   15.4  31.0     S   2.58  39.0     S   14.1   18.8   14.5   999.4  0.00  0.00   0.000   0.000   25.1    62   17.3   25.6  11.21  .0715    116    1    100.0    5 
21/09/18   0:45   18.4   18.4   18.3    83   15.4  29.0     S   2.42  37.0   SSW   14.2   18.8   14.6  1000.0  0.00  0.00   0.000   0.000   25.1    62   17.3   25.6  11.21  .0715    117    1    100.0    5 
21/09/18   0:50   18.4   18.4   18.4    83   15.4  28.0   SSW   2.33  37.0   SSW   14.3   18.8   14.7   999.9  0.00  0.00   0.000   0.000   25.1    62   17.3   25.6  11.21  .0715    117    1    100.0    5 
21/09/18   0:55   18.4   18.4   18.4    83   15.5  27.0   SSW   2.25  36.0   SSW   14.4   18.9   14.8   999.7  0.00  0.00   0.000   0.000   25.1    62   17.3   25.6  11.21  .0715    116    1    100.0    5 
21/09/18   1:00   18.4   18.4   18.4    83   15.5  29.0   SSW   2.42  42.0   SSW   14.2   18.9   14.7   999.5  0.00  0.00   0.000   0.000   25.1    62   17.3   25.6  11.21  .0715    117    1    100.0    5 
21/09/18   1:05   18.4   18.4   18.4    83   15.4  27.0   SSW   2.25  43.0   SSW   14.3   18.8   14.8   999.5  0.00  0.00   0.000   0.000   25.1    62   17.3   25.6  11.21  .0715    116    1    100.0    5 
21/09/18   1:10   18.4   18.4   18.4    82   15.3  29.0   SSW   2.42  38.0   SSW   14.2   18.9   14.7   999.5  0.00  0.00   0.000   0.000   25.1    62   17.3   25.6  11.21  .0715    115    1    100.0    5 
21/09/18   1:15   18.4   18.4   18.4    83   15.5  29.0   SSW   2.42  37.0   SSW   14.2   18.9   14.7   999.3  0.00  0.00   0.000   0.000   25.1    62   17.3   25.6  11.21  .0715    114    1    100.0    5 
21/09/18   1:20   18.3   18.4   18.3    83   15.4  30.0   SSW   2.50  40.0    SW   14.1   18.8   14.5   999.2  0.00  0.00   0.000   0.000   25.1    62   17.3   25.6  11.21  .0715    117    1    100.0    5 
21/09/18   1:25   18.1   18.3   18.1    83   15.2  27.0   SSW   2.25  38.0   SSW   14.0   18.5   14.4   999.2  0.00  0.00   0.001   0.000   25.1    62   17.3   25.6  11.21  .0715    117    1    100.0    5 
21/09/18   1:30   18.0   18.1   18.0    84   15.3  26.0   SSW   2.17  35.0   SSW   13.9   18.4   14.3   998.9  0.00  0.00   0.001   0.000   25.1    62   17.3   25.6  11.21  .0715    116    1    100.0    5 
21/09/18   1:35   18.1   18.1   18.0    84   15.3  27.0   SSW   2.25  34.0   SSW   13.9   18.4   14.3   998.8  0.00  0.00   0.001   0.000   25.1    62   17.3   25.6  11.21  .0714    116    1    100.0    5 
21/09/18   1:40   18.0   18.1   18.0    84   15.3  28.0   SSW   2.33  37.0   SSW   13.8   18.4   14.2   998.7  0.00  0.00   0.001   0.000   25.1    62   17.3   25.6  11.21  .0714    117    1    100.0    5 
21/09/18   1:45   18.0   18.1   18.0    84   15.3  27.0   SSW   2.25  36.0   SSW   13.9   18.4   14.3   998.6  0.00  0.00   0.001   0.000   25.1    62   17.3   25.6  11.21  .0714    117    1    100.0    5 
21/09/18   1:50   17.9   18.0   17.9    84   15.2  27.0   SSW   2.25  38.0     S   13.8   18.3   14.2   998.4  0.01  0.00   0.001   0.000   25.0    62   17.2   25.6  11.21  .0714    117    1    100.0    5 
21/09/18   1:55   17.8   17.9   17.8    84   15.1  27.0   SSW   2.25  34.0     S   13.7   18.2   14.0   998.1  0.00  0.08   0.002   0.000   25.0    62   17.2   25.6  11.21  .0714    117    1    100.0    5 
21/09/18   2:00   17.8   17.9   17.8    84   15.1  27.0   SSW   2.25  37.0   SSW   13.7   18.2   14.0   998.1  0.01  0.08   0.002   0.000   25.0    62   17.2   25.6  11.21  .0714    117    1    100.0    5 
21/09/18   2:05   17.8   17.9   17.8    84   15.1  27.0   SSW   2.25  34.0   SSW   13.7   18.2   14.0   998.0  0.01  0.10   0.002   0.000   25.0    62   17.2   25.6  11.21  .0714    118    1    100.0    5 
21/09/18   2:10   17.8   17.9   17.8    84   15.1  30.0   SSW   2.50  40.0     S   13.5   18.2   13.8   997.9  0.01  0.10   0.002   0.000   25.0    62   17.2   25.6  11.21  .0714    115    1    100.0    5 
21/09/18   2:15   17.8   17.9   17.8    84   15.1  32.0   SSW   2.67  43.0    SW   13.4   18.2   13.7   997.9  0.00  0.08   0.002   0.000   24.9    62   17.2   25.5  11.21  .0714    117    1    100.0    5 
21/09/18   2:20   15.9   17.8   15.9    84   13.2  33.0   WSW   2.75  47.0   WSW   11.1   16.0   11.2   999.4  0.04  1.09   0.008   0.000   24.9    62   17.2   25.5  11.21  .0715    115    1    100.0    5 
21/09/18   2:25   15.6   15.9   15.6    85   13.1  30.0   WSW   2.50  38.0   WSW   10.9   15.7   11.0   999.4  0.04  1.00   0.009   0.000   24.9    62   17.2   25.5  11.21  .0715    116    1    100.0    5 
21/09/18   2:30   15.7   15.7   15.6    85   13.2  27.0   WSW   2.25  36.0   WSW   11.2   15.7   11.2   999.5  0.00  0.08   0.009   0.000   24.9    62   17.2   25.5  11.21  .0715    117    1    100.0    5 
21/09/18   2:35   15.6   15.6   15.6    85   13.0  28.0   WSW   2.33  36.0    SW   11.0   15.6   11.1   999.5  0.00  0.05   0.010   0.000   25.0    62   17.2   25.6  11.21  .0715    117    1    100.0    5 
21/09/18   2:40   15.6   15.6   15.4    85   13.0  27.0   WSW   2.25  36.0   WSW   11.1   15.6   11.1   999.5  0.00  0.04   0.010   0.000   25.1    62   17.3   25.6  11.21  .0715    116    1    100.0    5 
21/09/18   2:45   15.5   15.6   15.4    85   13.0  27.0   WSW   2.25  33.0   WSW   11.0   15.6   11.1   999.5  0.00  0.00   0.010   0.000   25.1    62   17.3   25.6  11.21  .0715    115    1    100.0    5 
21/09/18   2:50   15.6   15.6   15.5    85   13.0  27.0   WSW   2.25  37.0   WSW   11.1   15.6   11.1   999.5  0.01  0.00   0.010   0.000   25.0    62   17.2   25.6  11.21  .0715    117    1    100.0    5 
21/09/18   2:55   15.6   15.7   15.6    85   13.1  26.0   WSW   2.17  37.0   WSW   11.2   15.7   11.3   999.5  0.00  0.00   0.009   0.000   25.0    62   17.2   25.6  11.21  .0715    116    1    100.0    5 
21/09/18   3:00   15.8   15.8   15.6    84   13.1  28.0   WSW   2.33  37.0   WSW   11.3   15.8   11.3   999.6  0.00  0.00   0.009   0.000   25.0    62   17.2   25.6  11.21  .0715    117    1    100.0    5 
21/09/18   3:05   15.8   15.8   15.8    84   13.1  25.0   WSW   2.08  33.0   WSW   11.6   15.9   11.7   999.5  0.00  0.00   0.009   0.000   25.0    62   17.2   25.6  11.21  .0715    115    1    100.0    5 
21/09/18   3:10   15.7   15.8   15.7    84   13.0  23.0   WSW   1.92  35.0   WSW   11.6   15.7   11.6   999.6  0.00  0.00   0.009   0.000   25.0    62   17.2   25.6  11.21  .0715    116    1    100.0    5 
21/09/18   3:15   15.4   15.7   15.4    83   12.6  25.0   WSW   2.08  35.0   WSW   11.2   15.4   11.2   999.8  0.00  0.00   0.010   0.000   25.0    62   17.2   25.6  11.21  .0715    117    1    100.0    5 
21/09/18   3:20   15.4   15.4   15.3    83   12.5  22.0   WSW   1.83  31.0     W   11.3   15.4   11.3   999.8  0.00  0.00   0.010   0.000   25.0    62   17.2   25.6  11.21  .0715    117    1    100.0    5 
21/09/18   3:25   15.3   15.4   15.3    83   12.5  19.0     W   1.58  30.0     W   11.7   15.3   11.7  1000.0  0.00  0.00   0.010   0.000   25.0    61   17.0   25.5  11.01  .0716    117    1    100.0    5 
21/09/18   3:30   15.1   15.3   15.1    82   12.0  19.0     W   1.58  29.0     W   11.3   15.0   11.3  1000.2  0.00  0.00   0.011   0.000   24.9    61   16.9   25.4  11.01  .0716    117    1    100.0    5 
21/09/18   3:35   14.8   15.1   14.8    81   11.6  17.0     W   1.42  29.0     W   11.4   14.7   11.3  1000.3  0.00  0.00   0.012   0.000   24.9    61   16.9   25.4  11.01  .0716    116    1    100.0    5 
21/09/18   3:40   14.6   14.8   14.6    80   11.1  18.0     W   1.50  26.0   WNW   10.9   14.4   10.8  1000.4  0.00  0.00   0.013   0.000   24.9    61   16.9   25.4  11.01  .0716    116    1    100.0    5 
21/09/18   3:45   14.4   14.6   14.4    79   10.8  17.0     W   1.42  29.0     W   10.9   14.3   10.8  1000.4  0.00  0.00   0.014   0.000   24.9    61   16.9   25.4  11.01  .0716    116    1    100.0    5 
21/09/18   3:50   14.3   14.4   14.3    79   10.7  15.0     W   1.25  23.0     W   11.2   14.2   11.0  1000.6  0.00  0.00   0.014   0.000   24.9    61   16.9   25.4  11.01  .0716    117    1    100.0    5 
21/09/18   3:55   14.2   14.3   14.2    79   10.6  15.0     W   1.25  23.0     W   11.0   14.1   10.8  1000.6  0.00  0.00   0.014   0.000   25.0    61   17.0   25.5  11.01  .0716    117    1    100.0    5 
21/09/18   4:00   14.1   14.2   14.1    78   10.3  17.0     W   1.42  28.0     W   10.6   13.9   10.3  1000.6  0.00  0.00   0.015   0.000   25.1    61   17.0   25.6  11.01  .0716    115    1    100.0    5 
21/09/18   4:05   14.0   14.1   14.0    78   10.2  15.0     W   1.25  24.0     W   10.7   13.8   10.5  1000.9  0.00  0.00   0.015   0.000   25.0    61   17.0   25.5  11.01  .0716    117    1    100.0    5 
21/09/18   4:10   13.9   14.0   13.9    78   10.2  16.0     W   1.33  23.0   WNW   10.5   13.7   10.3  1001.0  0.00  0.00   0.015   0.000   25.0    61   17.0   25.5  11.01  .0716    117    1    100.0    5 
21/09/18   4:15   13.9   14.0   13.9    78   10.2  14.0     W   1.17  22.0     W   10.9   13.7   10.7  1001.0  0.00  0.00   0.015   0.000   24.9    61   16.9   25.4  11.01  .0717    117    1    100.0    5 
21/09/18   4:20   13.9   14.0   13.9    78   10.2  14.0     W   1.17  25.0   WNW   10.9   13.7   10.7  1001.1  0.00  0.00   0.015   0.000   24.9    61   16.9   25.4  11.01  .0717    116    1    100.0    5 
21/09/18   4:25   13.9   13.9   13.9    78   10.2  15.0     W   1.25  24.0     W   10.7   13.7   10.4  1001.1  0.00  0.00   0.015   0.000   24.9    61   16.9   25.4  11.01  .0717    116    1    100.0    5 
21/09/18   4:30   13.9   13.9   13.9    78   10.1  13.0     W   1.08  22.0     W   11.1   13.7   10.8  1001.2  0.00  0.00   0.015   0.000   24.9    61   16.9   25.4  11.01  .0717    117    1    100.0    5 
21/09/18   4:35   13.8   13.9   13.8    78   10.0  14.0     W   1.17  20.0     W   10.7   13.6   10.5  1001.3  0.00  0.00   0.016   0.000   24.9    61   16.9   25.4  11.01  .0717    116    1    100.0    5 
21/09/18   4:40   13.7   13.8   13.7    78    9.9  13.0     W   1.08  22.0     W   10.8   13.4   10.6  1001.4  0.00  0.00   0.016   0.000   24.9    61   16.9   25.4  11.01  .0717    117    1    100.0    5 
21/09/18   4:45   13.6   13.7   13.6    77    9.7  12.0     W   1.00  21.0     W   11.0   13.4   10.8  1001.6  0.00  0.00   0.016   0.000   24.9    61   16.9   25.4  11.01  .0717    117    1    100.0    5 
21/09/18   4:50   13.6   13.6   13.6    77    9.6  13.0     W   1.08  23.0   WSW   10.7   13.3   10.4  1001.6  0.00  0.00   0.017   0.000   24.9    61   16.9   25.4  11.01  .0717    115    1    100.0    5 
21/09/18   4:55   13.6   13.6   13.6    77    9.6  13.0     W   1.08  26.0   WNW   10.7   13.3   10.4  1001.6  0.00  0.00   0.017   0.000   24.9    61   16.9   25.4  11.01  .0717    116    1    100.0    5 
21/09/18   5:00   13.5   13.6   13.5    77    9.5  12.0     W   1.00  20.0     W   10.8   13.2   10.6  1001.8  0.00  0.00   0.017   0.000   24.8    61   16.8   25.3  11.02  .0718    117    1    100.0    5 
21/09/18   5:05   13.4   13.5   13.4    77    9.5  10.0     W   0.83  15.0     W   11.4   13.2   11.1  1001.8  0.00  0.00   0.017   0.000   24.9    61   16.9   25.4  11.01  .0717    117    1    100.0    5 
21/09/18   5:10   13.4   13.4   13.4    77    9.4  13.0     W   1.08  27.0     W   10.4   13.1   10.2  1002.1  0.00  0.00   0.017   0.000   24.8    61   16.8   25.3  11.02  .0718    117    1    100.0    5 
21/09/18   5:15   13.4   13.4   13.4    77    9.4  10.0     W   0.83  20.0   WSW   11.3   13.1   11.1  1002.2  0.00  0.00   0.017   0.000   24.8    61   16.7   25.3  11.02  .0718    116    1    100.0    5 
21/09/18   5:20   13.3   13.4   13.3    77    9.4  11.0     W   0.92  20.0     W   10.9   13.1   10.7  1002.3  0.00  0.00   0.017   0.000   24.8    61   16.7   25.3  11.02  .0718    116    1    100.0    5 
21/09/18   5:25   13.3   13.3   13.3    77    9.3  14.0     W   1.17  24.0     W   10.1   13.0    9.8  1002.5  0.00  0.00   0.018   0.000   24.8    61   16.7   25.3  11.02  .0718    117    1    100.0    5 
21/09/18   5:30   13.3   13.3   13.3    77    9.3  13.0     W   1.08  20.0     W   10.3   13.0   10.1  1002.6  0.00  0.00   0.018   0.000   24.8    61   16.7   25.3  11.02  .0718    117    1    100.0    5 
21/09/18   5:35   13.2   13.3   13.2    77    9.3  14.0     W   1.17  22.0     W   10.1   12.9    9.8  1002.6  0.00  0.00   0.018   0.000   24.7    61   16.7   25.2  11.02  .0719    117    1    100.0    5 
21/09/18   5:40   13.2   13.2   13.2    77    9.2  12.0     W   1.00  25.0     W   10.4   12.9   10.2  1002.7  0.00  0.00   0.018   0.000   24.7    61   16.7   25.2  11.02  .0719    117    1    100.0    5 
21/09/18   5:45   13.1   13.2   13.1    77    9.1  13.0     W   1.08  23.0   WSW   10.1   12.8    9.9  1003.0  0.00  0.00   0.018   0.000   24.7    60   16.4   25.1  10.89  .0719    117    1    100.0    5 
21/09/18   5:50   13.0   13.1   13.0    78    9.3  12.0     W   1.00  20.0   WNW   10.3   12.8   10.1  1003.1  0.00  0.00   0.019   0.000   24.7    60   16.4   25.1  10.89  .0719    117    1    100.0    5 
21/09/18   5:55   12.9   13.0   12.9    78    9.1  12.0     W   1.00  23.0     W   10.1   12.7    9.9  1003.3  0.00  0.00   0.019   0.000   24.7    60   16.4   25.1  10.89  .0719    116    1    100.0    5 
21/09/18   6:00   12.8   12.9   12.8    78    9.0  15.0     W   1.25  24.0     W    9.4   12.6    9.2  1003.4  0.00  0.00   0.019   0.000   24.6    60   16.3   25.0  10.90  .0720    115    1    100.0    5 
21/09/18   6:05   12.7   12.8   12.7    77    8.7  14.0     W   1.17  26.0   WNW    9.4   12.4    9.2  1003.6  0.00  0.00   0.020   0.000   24.6    60   16.3   25.0  10.90  .0720    116    1    100.0    5 
21/09/18   6:10   12.6   12.7   12.6    77    8.7  12.0     W   1.00  22.0     W    9.8   12.4    9.6  1003.6  0.00  0.00   0.020   0.000   24.6    60   16.3   24.9  10.90  .0720    116    1    100.0    5 
21/09/18   6:15   12.6   12.6   12.6    76    8.4  13.0     W   1.08  21.0     W    9.5   12.3    9.2  1003.9  0.00  0.00   0.020   0.000   24.6    60   16.3   24.9  10.90  .0720    117    1    100.0    5 
21/09/18   6:20   12.5   12.6   12.5    77    8.6  14.0     W   1.17  19.0   WSW    9.3   12.3    9.1  1003.9  0.00  0.00   0.020   0.000   24.6    60   16.3   24.9  10.90  .0720    116    1    100.0    5 
21/09/18   6:25   12.4   12.5   12.4    77    8.5  14.0     W   1.17  21.0   WSW    9.1   12.2    8.9  1004.1  0.00  0.00   0.021   0.000   24.6    60   16.3   24.9  10.90  .0720    117    1    100.0    5 
21/09/18   6:30   12.3   12.4   12.3    77    8.4  12.0     W   1.00  18.0   WSW    9.4   12.1    9.2  1004.2  0.00  0.00   0.021   0.000   24.5    60   16.2   24.9  10.91  .0721    117    1    100.0    5 
21/09/18   6:35   12.2   12.3   12.2    77    8.3  13.0     W   1.08  26.0   WSW    9.1   11.9    8.8  1004.4  0.00  0.00   0.021   0.000   24.5    60   16.2   24.9  10.91  .0721    116    1    100.0    5 
21/09/18   6:40   12.1   12.2   12.1    77    8.2  11.0     W   0.92  20.0     W    9.6   11.9    9.3  1004.5  0.00  0.00   0.022   0.000   24.5    60   16.2   24.9  10.91  .0721    116    1    100.0    5 
21/09/18   6:45   11.9   12.1   11.9    77    8.0  12.0     W   1.00  24.0     W    9.1   11.7    8.8  1004.6  0.00  0.00   0.022   0.000   24.5    60   16.2   24.9  10.91  .0721    116    1    100.0    5 
21/09/18   6:50   11.9   11.9   11.9    77    8.0  11.0     W   0.92  17.0     W    9.3   11.7    9.1  1004.8  0.00  0.00   0.022   0.000   24.5    60   16.2   24.9  10.91  .0721    117    1    100.0    5 
21/09/18   6:55   11.9   11.9   11.9    77    8.0  11.0     W   0.92  19.0     W    9.3   11.7    9.1  1005.1  0.00  0.00   0.022   0.000   24.4    60   16.2   24.8  10.91  .0721    117    1    100.0    5 
21/09/18   7:00   11.8   11.9   11.8    77    7.9  11.0     W   0.92  17.0   WNW    9.2   11.6    9.0  1005.2  0.00  0.00   0.023   0.000   24.4    61   16.4   24.9  11.03  .0721    117    1    100.0    5 
21/09/18   7:05   11.8   11.8   11.8    77    7.9   9.0     W   0.75  16.0   WSW    9.8   11.6    9.6  1005.4  0.00  0.00   0.023   0.000   24.4    61   16.4   24.9  11.03  .0721    117    1    100.0    5 
21/09/18   7:10   11.7   11.8   11.7    77    7.8   7.0     W   0.58  13.0     W   10.4   11.4   10.2  1005.5  0.00  0.00   0.023   0.000   24.5    61   16.5   24.9  11.03  .0721    116    1    100.0    5 
21/09/18   7:15   11.6   11.7   11.6    78    7.8   8.0     W   0.67  15.0     W    9.9   11.3    9.7  1005.6  0.00  0.00   0.024   0.000   24.5    61   16.5   24.9  11.03  .0721    116    1    100.0    5 
21/09/18   7:20   11.4   11.6   11.4    78    7.7   9.0     W   0.75  14.0   WSW    9.4   11.3    9.2  1005.8  0.00  0.00   0.024   0.000   24.5    61   16.5   24.9  11.03  .0722    115    1    100.0    5 
21/09/18   7:25   11.3   11.4   11.3    77    7.4  11.0     W   0.92  19.0     W    8.6   11.1    8.4  1006.0  0.00  0.00   0.024   0.000   24.4    61   16.4   24.9  11.03  .0722    118    1    100.0    5 
21/09/18   7:30   11.2   11.3   11.2    76    7.1  13.0     W   1.08  24.0     W    7.9   10.9    7.7  1006.1  0.00  0.00   0.025   0.000   24.4    60   16.2   24.8  10.91  .0722    117    1    100.0    5 
21/09/18   7:35   11.2   11.2   11.1    75    6.9  11.0     W   0.92  19.0   WSW    8.4   10.9    8.2  1006.2  0.00  0.00   0.025   0.000   24.4    60   16.2   24.8  10.91  .0722    116    1    100.0    5 
21/09/18   7:40   11.1   11.2   11.1    75    6.8  10.0     W   0.83  15.0   WSW    8.7   10.9    8.4  1006.4  0.00  0.00   0.025   0.000   24.4    60   16.2   24.8  10.91  .0722    117    1    100.0    5 
21/09/18   7:45   11.1   11.1   11.1    74    6.6  11.0     W   0.92  19.0   WNW    8.4   10.9    8.2  1006.4  0.00  0.00   0.025   0.000   24.4    60   16.2   24.8  10.91  .0722    117    1    100.0    5 
21/09/18   7:50   11.1   11.1   11.1    74    6.6  11.0     W   0.92  19.0   WNW    8.4   10.9    8.2  1006.6  0.00  0.00   0.025   0.000   24.4    60   16.2   24.8  10.91  .0723    115    1    100.0    5 
21/09/18   7:55   11.2   11.2   11.1    74    6.7  12.0     W   1.00  18.0     W    8.2   10.9    7.9  1006.8  0.00  0.00   0.025   0.000   24.4    60   16.2   24.8  10.91  .0723    116    1    100.0    5 
21/09/18   8:00   11.2   11.2   11.2    74    6.7  12.0     W   1.00  19.0   WNW    8.2   10.9    7.9  1006.8  0.00  0.00   0.025   0.000   24.4    60   16.1   24.8  10.91  .0723    116    1    100.0    5 
21/09/18   8:05   11.2   11.2   11.2    74    6.8   9.0     W   0.75  16.0     W    9.1   10.9    8.8  1006.9  0.00  0.00   0.025   0.000   24.4    60   16.2   24.8  10.91  .0723    117    1    100.0    5 
21/09/18   8:10   11.2   11.2   11.2    74    6.8   8.0     W   0.67  12.0   WNW    9.5   10.9    9.2  1007.1  0.00  0.00   0.025   0.000   24.4    60   16.2   24.8  10.91  .0723    116    1    100.0    5 
21/09/18   8:15   11.2   11.2   11.2    73    6.6  10.0     W   0.83  17.0   WSW    8.8   10.9    8.5  1007.3  0.00  0.00   0.025   0.000   24.4    60   16.2   24.8  10.91  .0723    115    1    100.0    5 
21/09/18   8:20   11.2   11.2   11.2    73    6.6  10.0     W   0.83  17.0     W    8.8   10.9    8.5  1007.4  0.00  0.00   0.025   0.000   24.5    60   16.2   24.9  10.91  .0723    114    1    100.0    5 
21/09/18   8:25   11.3   11.3   11.2    73    6.6  11.0     W   0.92  18.0     W    8.6   11.0    8.3  1007.5  0.00  0.00   0.024   0.000   24.4    60   16.2   24.8  10.91  .0723    116    1    100.0    5 
21/09/18   8:30   11.3   11.3   11.3    73    6.7  11.0     W   0.92  23.0   WSW    8.6   11.1    8.3  1007.7  0.00  0.00   0.024   0.000   24.5    60   16.2   24.9  10.91  .0723    116    1    100.0    5 
21/09/18   8:35   11.4   11.4   11.3    73    6.7  10.0     W   0.83  18.0     W    9.0   11.1    8.7  1007.8  0.00  0.00   0.024   0.000   24.5    60   16.2   24.9  10.91  .0723    115    1    100.0    5 
21/09/18   8:40   11.5   11.5   11.4    72    6.6   9.0     W   0.75  15.0     W    9.4   11.2    9.1  1007.9  0.00  0.00   0.024   0.000   24.5    59   16.0   24.8  10.71  .0724    116    1    100.0    5 
21/09/18   8:45   11.6   11.6   11.5    72    6.7   8.0     W   0.67  16.0     W    9.9   11.2    9.6  1007.9  0.00  0.00   0.024   0.000   24.5    59   16.0   24.8  10.71  .0724    116    1    100.0    5 
21/09/18   8:50   11.7   11.7   11.6    72    6.8  12.0     W   1.00  22.0   WSW    8.7   11.3    8.4  1008.1  0.00  0.00   0.023   0.000   24.5    59   16.0   24.8  10.71  .0724    117    1    100.0    5 
21/09/18   8:55   11.8   11.8   11.7    73    7.1  11.0   WSW   0.92  19.0   WSW    9.1   11.4    8.8  1008.1  0.00  0.00   0.023   0.000   24.5    59   16.0   24.8  10.71  .0724    117    1    100.0    5 
21/09/18   9:00   11.9   11.9   11.8    73    7.3  11.0     W   0.92  19.0     W    9.3   11.6    9.0  1008.3  0.00  0.00   0.022   0.000   24.5    59   16.0   24.8  10.71  .0724    114    1    100.0    5 
21/09/18   9:05   12.1   12.1   11.9    74    7.6  12.0   WSW   1.00  20.0   WSW    9.2   11.8    8.9  1008.4  0.00  0.00   0.022   0.000   24.5    59   16.0   24.8  10.71  .0724    117    1    100.0    5 
21/09/18   9:10   12.1   12.1   12.1    74    7.6  14.0   WSW   1.17  21.0   WSW    8.8   11.8    8.6  1008.5  0.00  0.00   0.022   0.000   24.5    59   16.0   24.8  10.71  .0724    117    1    100.0    5 
21/09/18   9:15   12.3   12.3   12.1    74    7.8  13.0   WSW   1.08  22.0   WSW    9.2   12.1    8.9  1008.4  0.00  0.00   0.021   0.000   24.5    59   16.0   24.8  10.71  .0724    117    1    100.0    5 
21/09/18   9:20   12.4   12.4   12.3    73    7.7  15.0     W   1.25  26.0     W    8.9   12.1    8.6  1008.6  0.00  0.00   0.021   0.000   24.5    59   16.0   24.8  10.71  .0724    116    1    100.0    5 
21/09/18   9:25   12.6   12.6   12.4    73    7.8  15.0     W   1.25  23.0   WSW    9.1   12.2    8.8  1008.5  0.00  0.00   0.020   0.000   24.5    59   16.0   24.8  10.71  .0724    116    1    100.0    5 
21/09/18   9:30   12.7   12.7   12.6    72    7.7  14.0     W   1.17  24.0   WSW    9.4   12.3    9.1  1008.7  0.00  0.00   0.020   0.000   24.5    58   15.7   24.8  10.51  .0724    118    1    100.0    5 
21/09/18   9:35   12.8   12.8   12.7    72    7.9  12.0     W   1.00  25.0   WSW   10.1   12.4    9.7  1008.8  0.00  0.00   0.019   0.000   24.6    58   15.7   24.9  10.50  .0724    115    1    100.0    5 
21/09/18   9:40   13.1   13.1   12.9    72    8.1  16.0   WSW   1.33  24.0     W    9.6   12.7    9.2  1008.8  0.00  0.00   0.018   0.000   24.6    58   15.7   24.9  10.50  .0724    116    1    100.0    5 
21/09/18   9:45   13.1   13.1   13.1    72    8.2  14.0     W   1.17  23.0     W    9.9   12.7    9.6  1008.9  0.00  0.00   0.018   0.000   24.6    58   15.7   24.9  10.50  .0724    117    1    100.0    5 
21/09/18   9:50   13.2   13.2   13.1    71    8.0  14.0     W   1.17  23.0     W   10.0   12.7    9.6  1008.9  0.00  0.00   0.018   0.000   24.6    58   15.8   24.9  10.50  .0724    117    1    100.0    5 
21/09/18   9:55   13.2   13.2   13.2    70    7.9  14.0     W   1.17  21.0     W   10.1   12.8    9.6  1009.0  0.00  0.00   0.018   0.000   24.6    58   15.8   24.9  10.50  .0724    116    1    100.0    5 
21/09/18  10:00   13.3   13.3   13.3    70    8.0  13.0     W   1.08  24.0     W   10.4   12.9    9.9  1009.2  0.00  0.00   0.017   0.000   24.6    58   15.8   24.9  10.50  .0724    117    1    100.0    5 
21/09/18  10:05   13.4   13.4   13.3    70    8.1  15.0     W   1.25  22.0   WSW   10.1   13.0    9.7  1009.0  0.00  0.00   0.017   0.000   24.6    58   15.8   24.9  10.50  .0724    117    1    100.0    5 
21/09/18  10:10   13.5   13.5   13.4    69    7.9  14.0     W   1.17  25.0     W   10.4   13.1    9.9  1009.2  0.00  0.00   0.017   0.000   24.6    58   15.8   24.9  10.50  .0724    117    1    100.0    5 
21/09/18  10:15   13.6   13.6   13.5    69    8.0  16.0     W   1.33  26.0   WNW   10.1   13.1    9.6  1009.2  0.00  0.00   0.017   0.000   24.7    57   15.6   24.9  10.29  .0724    117    1    100.0    5 
21/09/18  10:20   13.6   13.6   13.6    68    7.8  17.0     W   1.42  29.0   WSW    9.9   13.1    9.4  1009.4  0.00  0.00   0.017   0.000   24.7    57   15.6   24.9  10.29  .0725    117    1    100.0    5 
21/09/18  10:25   13.7   13.7   13.6    68    7.9  14.0     W   1.17  23.0     W   10.6   13.2   10.1  1009.4  0.00  0.00   0.016   0.000   24.7    57   15.6   25.0  10.29  .0724    117    1    100.0    5 
21/09/18  10:30   13.8   13.8   13.7    68    8.0  13.0     W   1.08  20.0     W   11.0   13.3   10.5  1009.3  0.00  0.00   0.016   0.000   24.7    57   15.6   25.0  10.29  .0724    114    1    100.0    5 
21/09/18  10:35   14.1   14.1   13.9    66    7.8  15.0     W   1.25  27.0   WSW   10.9   13.6   10.3  1009.5  0.00  0.00   0.015   0.000   24.7    57   15.6   25.0  10.29  .0724    116    1    100.0    5 
21/09/18  10:40   14.2   14.2   14.1    65    7.7  18.0     W   1.50  31.0     W   10.4   13.6    9.9  1009.5  0.00  0.00   0.014   0.000   24.8    57   15.7   25.1  10.29  .0724    117    1    100.0    5 
21/09/18  10:45   14.4   14.4   14.2    65    7.9  17.0     W   1.42  27.0   WNW   10.9   13.8   10.3  1009.5  0.00  0.00   0.014   0.000   24.8    57   15.7   25.1  10.29  .0724    116    1    100.0    5 
21/09/18  10:50   14.6   14.6   14.4    64    7.8  17.0   WSW   1.42  27.0     W   11.1   13.9   10.4  1009.4  0.00  0.00   0.013   0.000   24.8    57   15.7   25.1  10.29  .0724    117    1    100.0    5 
21/09/18  10:55   14.7   14.7   14.6    64    7.9  17.0   WSW   1.42  28.0   WSW   11.2   14.1   10.6  1009.5  0.00  0.00   0.013   0.000   24.8    57   15.7   25.1  10.28  .0724    116    1    100.0    5 
21/09/18  11:00   14.7   14.7   14.7    63    7.7  19.0   WSW   1.58  31.0   WSW   11.0   14.1   10.4  1009.4  0.00  0.00   0.013   0.000   24.8    57   15.7   25.1  10.28  .0724    117    1    100.0    5 
21/09/18  11:05   14.8   14.8   14.7    63    7.9  18.0   WSW   1.50  28.0   WSW   11.2   14.2   10.6  1009.4  0.00  0.00   0.012   0.000   24.8    57   15.7   25.1  10.28  .0724    117    1    100.0    5 
21/09/18  11:10   14.8   14.9   14.8    61    7.4  21.0   WSW   1.75  32.0   WSW   10.8   14.2   10.2  1009.5  0.00  0.00   0.012   0.000   24.8    57   15.7   25.1  10.28  .0724    117    1    100.0    5 
21/09/18  11:15   14.9   14.9   14.8    60    7.2  17.0     W   1.42  27.0   WSW   11.4   14.2   10.7  1009.6  0.00  0.00   0.012   0.000   24.9    57   15.8   25.2  10.28  .0724    117    1    100.0    5 
21/09/18  11:20   15.0   15.0   14.9    61    7.5  18.0     W   1.50  28.0   WSW   11.4   14.3   10.7  1009.6  0.00  0.00   0.012   0.000   24.9    57   15.8   25.2  10.28  .0724    117    1    100.0    5 
21/09/18  11:25   15.2   15.2   15.0    63    8.2  19.0   WSW   1.58  31.0   WSW   11.5   14.6   10.9  1009.7  0.00  0.00   0.011   0.000   24.9    57   15.8   25.2  10.27  .0724    117    1    100.0    5 
21/09/18  11:30   15.1   15.2   15.1    60    7.3  22.0   WSW   1.83  33.0   WSW   10.9   14.3   10.2  1009.8  0.00  0.00   0.011   0.000   24.9    57   15.8   25.2  10.27  .0724    115    1    100.0    5 
21/09/18  11:35   15.2   15.2   15.1    60    7.4  18.0     W   1.50  31.0     W   11.6   14.4   10.9  1009.9  0.00  0.00   0.011   0.000   25.0    56   15.6   25.2  10.17  .0724    117    1    100.0    5 
21/09/18  11:40   15.5   15.5   15.2    59    7.5  14.0     W   1.17  25.0   WNW   12.7   14.7   11.9  1010.0  0.00  0.00   0.010   0.000   25.0    56   15.6   25.2  10.17  .0724    116    1    100.0    5 
21/09/18  11:45   15.5   15.6   15.5    60    7.8  21.0   WSW   1.75  29.0   WSW   11.6   14.8   10.9  1009.9  0.00  0.00   0.010   0.000   25.1    56   15.7   25.3  10.17  .0724    117    1    100.0    5 
21/09/18  11:50   15.5   15.5   15.4    59    7.5  18.0     W   1.50  30.0     W   12.0   14.7   11.2  1010.0  0.00  0.00   0.010   0.000   25.1    56   15.7   25.3  10.17  .0724    117    1    100.0    5 
21/09/18  11:55   15.4   15.5   15.4    61    7.9  21.0   WSW   1.75  29.0   WSW   11.4   14.7   10.8  1010.0  0.00  0.00   0.010   0.000   25.1    56   15.7   25.3  10.16  .0724    117    1    100.0    5 
21/09/18  12:00   15.3   15.4   15.3    60    7.6  19.0   WSW   1.58  27.0     W   11.7   14.6   10.9  1010.1  0.00  0.00   0.010   0.000   25.1    56   15.7   25.3  10.16  .0724    117    1    100.0    5 
21/09/18  12:05   15.3   15.3   15.3    61    7.8  17.0   WSW   1.42  26.0   WSW   11.9   14.7   11.3  1010.1  0.00  0.00   0.010   0.000   25.1    56   15.7   25.3  10.16  .0724    117    1    100.0    5 
21/09/18  12:10   15.7   15.7   15.3    64    8.9  18.0   WSW   1.50  28.0   WSW   12.2   15.1   11.6  1010.0  0.00  0.00   0.009   0.000   25.1    56   15.7   25.3  10.16  .0724    115    1    100.0    5 
21/09/18  12:15   15.8   15.8   15.7    63    8.8  21.0   WSW   1.75  30.0   WSW   12.0   15.3   11.4  1010.2  0.00  0.00   0.009   0.000   25.2    56   15.8   25.4  10.16  .0724    116    1    100.0    5 
21/09/18  12:20   16.0   16.0   15.8    61    8.5  22.0   WSW   1.83  30.0   WSW   12.1   15.4   11.4  1010.3  0.00  0.00   0.008   0.000   25.2    56   15.8   25.4  10.16  .0724    117    1    100.0    5 
21/09/18  12:25   15.9   16.1   15.9    58    7.7  22.0   WSW   1.83  33.0   WSW   12.0   15.2   11.2  1010.4  0.00  0.00   0.008   0.000   25.2    56   15.8   25.5  10.15  .0724    117    1    100.0    5 
21/09/18  12:30   15.8   15.9   15.7    64    9.0  20.0   WSW   1.67  32.0   WSW   12.0   15.3   11.5  1010.5  0.00  0.00   0.009   0.000   25.2    56   15.8   25.5  10.15  .0724    117    1    100.0    5 
21/09/18  12:35   15.9   15.9   15.8    60    8.1  22.0   WSW   1.83  31.0   WSW   11.9   15.2   11.3  1010.5  0.00  0.00   0.008   0.000   25.3    55   15.6   25.5   9.95  .0724    117    1    100.0    5 
21/09/18  12:40   16.2   16.2   15.9    61    8.6  20.0   WSW   1.67  29.0     W   12.4   15.6   11.8  1010.5  0.00  0.00   0.008   0.000   25.3    55   15.6   25.6   9.95  .0724    118    1    100.0    5 
21/09/18  12:45   16.3   16.3   16.2    61    8.7  20.0   WSW   1.67  30.0   WSW   12.6   15.7   12.0  1010.5  0.00  0.00   0.007   0.000   25.3    55   15.6   25.6   9.95  .0724    115    1    100.0    5 
21/09/18  12:50   16.3   16.3   16.3    62    9.0  20.0   WSW   1.67  31.0   WSW   12.6   15.7   12.1  1010.5  0.00  0.00   0.007   0.000   25.3    55   15.6   25.6   9.95  .0724    117    1    100.0    5 
21/09/18  12:55   16.2   16.3   16.2    61    8.7  22.0   WSW   1.83  32.0   WSW   12.3   15.6   11.7  1010.6  0.00  0.00   0.007   0.000   25.4    55   15.7   25.6   9.94  .0724    117    1    100.0    5 
21/09/18  13:00   16.1   16.3   16.1    62    8.8  22.0   WSW   1.83  32.0   WSW   12.1   15.5   11.6  1010.7  0.00  0.00   0.008   0.000   25.4    55   15.7   25.6   9.94  .0724    117    1    100.0    5 
21/09/18  13:05   15.9   16.1   15.8    62    8.6  21.0   WSW   1.75  32.0   WSW   12.1   15.3   11.4  1010.7  0.00  0.00   0.008   0.000   25.4    55   15.7   25.6   9.94  .0724    116    1    100.0    5 
21/09/18  13:10   16.0   16.1   15.9    59    8.0  22.0   WSW   1.83  33.0    SW   12.1   15.3   11.3  1010.7  0.00  0.00   0.008   0.000   25.4    55   15.7   25.7   9.94  .0723    117    1    100.0    5 
21/09/18  13:15   16.1   16.1   16.0    60    8.3  22.0   WSW   1.83  33.0   WSW   12.2   15.4   11.5  1010.6  0.00  0.00   0.008   0.000   25.4    55   15.7   25.7   9.94  .0723    115    1    100.0    5 
21/09/18  13:20   16.2   16.2   16.1    61    8.7  23.0   WSW   1.92  33.0   WSW   12.2   15.6   11.6  1010.7  0.00  0.00   0.007   0.000   25.4    55   15.7   25.7   9.94  .0724    117    1    100.0    5 
21/09/18  13:25   16.2   16.2   16.2    60    8.4  25.0   WSW   2.08  33.0   WSW   12.0   15.6   11.3  1010.8  0.00  0.00   0.007   0.000   25.4    54   15.5   25.7   9.79  .0724    115    1    100.0    5 
21/09/18  13:30   16.6   16.6   16.2    58    8.3  21.0   WSW   1.75  32.0   WSW   12.8   15.8   12.1  1010.9  0.00  0.00   0.006   0.000   25.5    54   15.5   25.7   9.79  .0724    116    1    100.0    5 
21/09/18  13:35   16.6   16.6   16.6    58    8.3  22.0   WSW   1.83  31.0   WSW   12.7   15.8   12.0  1011.0  0.00  0.00   0.006   0.000   25.5    55   15.8   25.8   9.93  .0724    117    1    100.0    5 
21/09/18  13:40   16.5   16.6   16.5    58    8.2  21.0   WSW   1.75  33.0   WSW   12.7   15.8   12.0  1011.2  0.00  0.00   0.006   0.000   25.5    55   15.8   25.8   9.93  .0724    117    1    100.0    5 
21/09/18  13:45   16.6   16.6   16.5    59    8.6  20.0   WSW   1.67  32.0   WSW   13.0   15.9   12.3  1011.2  0.00  0.00   0.006   0.000   25.6    54   15.6   25.8   9.79  .0724    118    1    100.0    5 
21/09/18  13:50   16.6   16.7   16.6    61    9.1  22.0   WSW   1.83  34.0   WSW   12.8   16.0   12.2  1011.2  0.00  0.00   0.006   0.000   25.6    54   15.6   25.8   9.79  .0724    116    1    100.0    5 
21/09/18  13:55   16.3   16.6   16.3    64    9.5  25.0   WSW   2.08  31.0   WSW   12.1   15.8   11.6  1011.2  0.00  0.00   0.007   0.000   25.6    54   15.6   25.8   9.79  .0724    117    1    100.0    5 
21/09/18  14:00   16.6   16.6   16.3    61    9.1  22.0   WSW   1.83  35.0   WSW   12.8   16.0   12.2  1011.2  0.00  0.00   0.006   0.000   25.6    54   15.6   25.8   9.79  .0724    117    1    100.0    5 
21/09/18  14:05   16.8   16.8   16.7    59    8.8  24.0   WSW   2.00  34.0   WSW   12.8   16.2   12.1  1011.2  0.00  0.00   0.005   0.000   25.6    55   15.9   25.9   9.93  .0723    117    1    100.0    5 
21/09/18  14:10   16.9   16.9   16.8    58    8.6  22.0   WSW   1.83  32.0   WSW   13.1   16.2   12.3  1011.3  0.00  0.00   0.005   0.000   25.7    55   15.9   25.9   9.92  .0723    116    1    100.0    5 
21/09/18  14:15   16.8   16.9   16.8    62    9.5  23.0   WSW   1.92  31.0   WSW   12.9   16.3   12.3  1011.3  0.00  0.00   0.005   0.000   25.7    54   15.7   25.9   9.79  .0723    116    1    100.0    5 
21/09/18  14:20   16.7   16.8   16.7    61    9.1  22.0   WSW   1.83  33.0    SW   12.8   16.1   12.2  1011.4  0.00  0.00   0.006   0.000   25.7    54   15.7   25.9   9.79  .0724    116    1    100.0    5 
21/09/18  14:25   16.8   16.8   16.6    64    9.9  25.0   WSW   2.08  35.0    SW   12.6   16.3   12.2  1011.5  0.00  0.00   0.005   0.000   25.7    54   15.7   25.9   9.78  .0723    117    1    100.0    5 
21/09/18  14:30   16.9   16.9   16.8    60    9.1  25.0   WSW   2.08  36.0    SW   12.8   16.2   12.1  1011.5  0.00  0.00   0.005   0.000   25.7    54   15.7   25.9   9.78  .0723    117    1    100.0    5 
21/09/18  14:35   16.9   16.9   16.9    63    9.8  24.0   WSW   2.00  33.0   WSW   12.8   16.4   12.3  1011.7  0.00  0.00   0.005   0.000   25.8    54   15.8   26.0   9.78  .0723    117    1    100.0    5 
21/09/18  14:40   16.6   16.9   16.6    64    9.8  28.0   WSW   2.33  36.0   WSW   12.2   16.2   11.8  1011.6  0.00  0.00   0.006   0.000   25.8    53   15.5   26.0   9.65  .0724    116    1    100.0    5 
21/09/18  14:45   16.8   16.8   16.6    62    9.5  22.0   WSW   1.83  31.0   WSW   13.0   16.3   12.4  1011.6  0.00  0.00   0.005   0.000   25.8    53   15.5   26.1   9.65  .0723    117    1    100.0    5 
21/09/18  14:50   16.7   16.8   16.7    62    9.4  24.0   WSW   2.00  33.0   WSW   12.7   16.2   12.1  1011.6  0.00  0.00   0.006   0.000   25.9    53   15.6   26.1   9.65  .0723    115    1    100.0    5 
21/09/18  14:55   16.9   16.9   16.7    62    9.6  23.0   WSW   1.92  34.0   WSW   13.1   16.4   12.6  1011.7  0.00  0.00   0.005   0.000   25.9    53   15.6   26.1   9.65  .0723    117    1    100.0    5 
21/09/18  15:00   17.1   17.1   16.9    62    9.7  23.0   WSW   1.92  31.0   WSW   13.2   16.6   12.7  1011.7  0.00  0.00   0.004   0.000   25.9    53   15.6   26.1   9.65  .0723    117    1    100.0    5 
21/09/18  15:05   17.2   17.2   17.1    63   10.1  22.0   WSW   1.83  32.0   WSW   13.4   16.8   13.0  1011.8  0.00  0.00   0.004   0.000   25.9    53   15.6   26.2   9.65  .0723    117    1    100.0    5 
21/09/18  15:10   17.3   17.3   17.2    60    9.5  23.0   WSW   1.92  33.0   WSW   13.4   16.7   12.8  1011.9  0.00  0.00   0.003   0.000   25.9    53   15.6   26.2   9.65  .0723    116    1    100.0    5 
21/09/18  15:15   16.9   17.3   16.9    61    9.4  23.0   WSW   1.92  31.0   WSW   13.1   16.3   12.4  1012.0  0.00  0.00   0.005   0.000   25.9    53   15.6   26.2   9.65  .0723    117    1    100.0    5 
21/09/18  15:20   17.1   17.1   16.8    62    9.8  23.0   WSW   1.92  33.0   WSW   13.2   16.6   12.7  1011.8  0.00  0.00   0.004   0.000   26.0    53   15.7   26.2   9.65  .0723    116    1    100.0    5 
21/09/18  15:25   17.2   17.2   17.1    63   10.1  22.0   WSW   1.83  29.0     W   13.4   16.7   12.9  1011.9  0.00  0.00   0.004   0.000   26.0    53   15.7   26.2   9.65  .0723    115    1    100.0    5 
21/09/18  15:30   17.3   17.3   17.2    63   10.2  24.0   WSW   2.00  33.0   WSW   13.3   16.9   12.9  1012.0  0.00  0.00   0.003   0.000   26.0    53   15.7   26.2   9.65  .0723    117    1    100.0    5 
21/09/18  15:35   16.8   17.3   16.8    64    9.9  26.0   WSW   2.17  37.0   WSW   12.6   16.3   12.1  1011.9  0.00  0.00   0.005   0.000   26.0    53   15.7   26.2   9.65  .0723    117    1    100.0    5 
21/09/18  15:40   16.6   16.8   16.6    65   10.0  22.0   WSW   1.83  33.0   WSW   12.8   16.2   12.4  1012.0  0.00  0.00   0.006   0.000   26.1    53   15.7   26.3   9.65  .0723    117    1    100.0    5 
21/09/18  15:45   16.4   16.6   16.4    62    9.1  22.0   WSW   1.83  32.0   WSW   12.5   15.8   11.9  1012.2  0.00  0.00   0.007   0.000   26.1    52   15.4   26.2   9.47  .0723    117    1    100.0    5 
21/09/18  15:50   16.4   16.4   16.4    63    9.3  20.0   WSW   1.67  30.0   WSW   12.7   15.9   12.2  1012.2  0.00  0.00   0.007   0.000   26.1    52   15.4   26.2   9.47  .0723    115    1    100.0    5 
21/09/18  15:55   16.6   16.6   16.4    60    8.8  19.0   WSW   1.58  30.0   WSW   13.1   15.9   12.4  1012.1  0.00  0.00   0.006   0.000   26.0    52   15.4   26.2   9.47  .0723    115    1    100.0    5 
21/09/18  16:00   17.2   17.2   16.6    57    8.6  13.0     W   1.08  27.0     W   14.8   16.5   14.1  1012.1  0.00  0.00   0.004   0.000   26.0    52   15.4   26.2   9.47  .0723    115    1    100.0    5 
21/09/18  16:05   17.2   17.3   17.2    54    7.8  12.0     W   1.00  22.0     W   15.1   16.3   14.2  1012.2  0.00  0.00   0.004   0.000   26.0    52   15.4   26.2   9.47  .0724    117    1    100.0    5 
21/09/18  16:10   16.9   17.2   16.9    58    8.6  15.0     W   1.25  23.0   WSW   14.1   16.2   13.4  1012.2  0.00  0.00   0.005   0.000   26.0    52   15.4   26.2   9.47  .0724    117    1    100.0    5 
21/09/18  16:15   16.9   16.9   16.9    57    8.4  21.0   WSW   1.75  32.0     W   13.3   16.2   12.6  1012.4  0.00  0.00   0.005   0.000   26.0    52   15.4   26.2   9.47  .0724    117    1    100.0    5 
21/09/18  16:20   16.9   16.9   16.9    57    8.3  21.0   WSW   1.75  32.0   WSW   13.2   16.2   12.4  1012.4  0.00  0.00   0.005   0.000   26.0    52   15.4   26.2   9.47  .0724    117    1    100.0    5 
21/09/18  16:25   16.8   16.8   16.7    57    8.3  22.0     W   1.83  32.0   WSW   13.0   16.1   12.2  1012.5  0.00  0.00   0.005   0.000   26.0    52   15.4   26.2   9.47  .0724    117    1    100.0    5 
21/09/18  16:30   17.1   17.1   16.8    55    8.0  21.0   WSW   1.75  31.0   WSW   13.4   16.3   12.7  1012.6  0.00  0.00   0.004   0.000   26.0    52   15.4   26.2   9.47  .0724    116    1    100.0    5 
21/09/18  16:35   17.2   17.2   17.1    58    8.8  18.0   WSW   1.50  26.0     W   13.9   16.5   13.2  1012.5  0.00  0.00   0.004   0.000   26.0    51   15.1   26.1   9.35  .0724    117    1    100.0    5 
21/09/18  16:40   17.1   17.2   17.1    58    8.7  17.0   WSW   1.42  27.0   WSW   13.9   16.4   13.2  1012.6  0.00  0.00   0.004   0.000   26.0    51   15.1   26.1   9.35  .0724    117    1    100.0    5 
21/09/18  16:45   17.1   17.2   17.1    58    8.8  19.0   WSW   1.58  29.0   WSW   13.7   16.4   13.0  1012.7  0.00  0.00   0.004   0.000   26.0    51   15.1   26.1   9.35  .0724    116    1    100.0    5 
21/09/18  16:50   17.1   17.1   17.0    56    8.2  17.0   WSW   1.42  25.0   WSW   13.9   16.3   13.1  1012.8  0.00  0.00   0.004   0.000   25.9    51   15.0   26.1   9.35  .0724    116    1    100.0    5 
21/09/18  16:55   17.4   17.4   17.1    55    8.3  18.0     W   1.50  29.0   WSW   14.1   16.6   13.3  1012.7  0.00  0.00   0.003   0.000   26.0    51   15.1   26.1   9.35  .0724    117    1    100.0    5 
21/09/18  17:00   17.2   17.4   17.2    54    7.8  17.0   WSW   1.42  25.0   WSW   14.0   16.3   13.2  1012.8  0.00  0.00   0.004   0.000   26.0    51   15.1   26.1   9.35  .0724    117    1    100.0    5 
21/09/18  17:05   17.1   17.2   17.1    56    8.2  18.0   WSW   1.50  27.0     W   13.7   16.3   12.9  1012.8  0.00  0.00   0.004   0.000   26.0    51   15.1   26.1   9.35  .0724    116    1    100.0    5 
21/09/18  17:10   17.3   17.3   17.1    53    7.6  15.0     W   1.25  27.0   WSW   14.5   16.4   13.6  1012.8  0.00  0.00   0.004   0.000   26.0    51   15.1   26.1   9.35  .0724    116    1    100.0    5 
21/09/18  17:15   17.4   17.4   17.3    52    7.4  17.0     W   1.42  34.0   WNW   14.3   16.4   13.3  1012.9  0.00  0.00   0.003   0.000   25.9    51   15.0   26.1   9.35  .0724    117    1    100.0    5 
21/09/18  17:20   17.3   17.4   17.3    51    7.1  18.0     W   1.50  30.0     W   14.1   16.3   13.1  1013.0  0.00  0.00   0.003   0.000   25.9    51   15.0   26.1   9.35  .0725    117    1    100.0    5 
21/09/18  17:25   17.2   17.3   17.2    52    7.3  17.0     W   1.42  32.0   WSW   14.1   16.3   13.1  1013.0  0.00  0.00   0.004   0.000   25.9    51   15.0   26.1   9.35  .0725    117    1    100.0    5 
21/09/18  17:30   17.1   17.2   17.1    53    7.4  17.0     W   1.42  26.0     W   13.9   16.2   13.0  1013.1  0.00  0.00   0.004   0.000   25.9    51   15.0   26.1   9.35  .0725    117    1    100.0    5 
21/09/18  17:35   17.0   17.1   17.0    53    7.3  16.0     W   1.33  26.0    SW   14.0   16.1   13.1  1013.1  0.00  0.00   0.005   0.000   25.9    51   15.0   26.1   9.35  .0725    117    1    100.0    5 
21/09/18  17:40   17.0   17.0   17.0    53    7.3  15.0     W   1.25  26.0   WNW   14.2   16.1   13.3  1013.1  0.00  0.00   0.005   0.000   25.9    51   15.0   26.0   9.35  .0725    117    1    100.0    5 
21/09/18  17:45   17.0   17.0   16.9    54    7.6  13.0     W   1.08  24.0   WSW   14.6   16.2   13.8  1013.3  0.00  0.00   0.005   0.000   25.9    51   15.0   26.1   9.35  .0725    117    1    100.0    5 
21/09/18  17:50   16.9   17.0   16.9    54    7.5  16.0     W   1.33  28.0     W   13.8   16.1   13.0  1013.3  0.00  0.00   0.005   0.000   25.9    51   15.0   26.0   9.35  .0725    117    1    100.0    5 
21/09/18  17:55   16.8   16.9   16.8    54    7.4  18.0     W   1.50  27.0     W   13.4   15.9   12.5  1013.4  0.00  0.00   0.005   0.000   25.9    50   14.7   25.9   9.18  .0725    118    1    100.0    5 
21/09/18  18:00   16.7   16.8   16.7    56    7.9  14.0     W   1.17  23.0     W   14.1   15.9   13.3  1013.5  0.00  0.00   0.006   0.000   25.9    51   15.0   26.0   9.35  .0725    117    1    100.0    5 
21/09/18  18:05   16.8   16.8   16.7    55    7.7  11.0     W   0.92  18.0     W   14.9   15.9   14.1  1013.6  0.00  0.00   0.005   0.000   25.8    51   14.9   25.9   9.35  .0725    115    1    100.0    5 
21/09/18  18:10   16.7   16.8   16.7    55    7.6  13.0     W   1.08  25.0     W   14.2   15.8   13.4  1013.7  0.00  0.00   0.006   0.000   25.8    51   14.9   25.9   9.35  .0725    114    1    100.0    5 
21/09/18  18:15   16.5   16.7   16.5    55    7.4  13.0     W   1.08  22.0   WSW   14.0   15.7   13.2  1013.7  0.00  0.00   0.006   0.000   25.8    51   14.9   25.9   9.35  .0725    117    1    100.0    5 
21/09/18  18:20   16.3   16.5   16.3    56    7.5  14.0     W   1.17  22.0     W   13.6   15.5   12.8  1013.8  0.00  0.00   0.007   0.000   25.8    50   14.6   25.8   9.18  .0726    117    1    100.0    5 
21/09/18  18:25   16.3   16.3   16.3    57    7.8  11.0     W   0.92  20.0   WNW   14.4   15.6   13.6  1014.0  0.00  0.00   0.007   0.000   25.8    51   14.9   25.9   9.35  .0726    116    1    100.0    5 
21/09/18  18:30   16.2   16.3   16.2    57    7.7  12.0     W   1.00  19.0   WSW   13.9   15.4   13.2  1014.1  0.00  0.00   0.007   0.000   25.7    50   14.5   25.8   9.18  .0726    117    1    100.0    5 
21/09/18  18:35   16.1   16.2   16.1    58    7.8  13.0     W   1.08  20.0     W   13.5   15.3   12.7  1014.2  0.00  0.00   0.008   0.000   25.7    50   14.5   25.8   9.18  .0726    116    1    100.0    5 
21/09/18  18:40   15.9   16.1   15.9    59    7.9  11.0     W   0.92  20.0     W   13.9   15.2   13.2  1014.2  0.00  0.00   0.008   0.000   25.7    50   14.5   25.8   9.18  .0726    117    1    100.0    5 
21/09/18  18:45   15.6   15.8   15.6    60    7.9  12.0     W   1.00  19.0   WSW   13.3   14.9   12.6  1014.3  0.00  0.00   0.009   0.000   25.7    50   14.5   25.8   9.18  .0726    117    1    100.0    5 
21/09/18  18:50   15.4   15.6   15.4    61    7.9  14.0     W   1.17  22.0     W   12.6   14.7   11.9  1014.4  0.00  0.00   0.010   0.000   25.7    50   14.5   25.7   9.19  .0727    117    1    100.0    5 
21/09/18  18:55   15.3   15.4   15.3    61    7.8  13.0     W   1.08  20.0   WSW   12.6   14.6   11.9  1014.6  0.00  0.00   0.011   0.000   25.7    50   14.5   25.7   9.19  .0727    116    1    100.0    5 
21/09/18  19:00   15.2   15.3   15.2    62    7.9  12.0     W   1.00  19.0     W   12.8   14.5   12.1  1014.7  0.00  0.00   0.011   0.000   25.7    50   14.5   25.7   9.19  .0727    117    1    100.0    5 
21/09/18  19:05   15.1   15.2   15.1    62    7.8  14.0     W   1.17  23.0     W   12.2   14.4   11.5  1014.9  0.00  0.00   0.011   0.000   25.6    50   14.4   25.6   9.19  .0727    116    1    100.0    5 
21/09/18  19:10   14.9   15.1   14.9    63    8.0  12.0     W   1.00  17.0   WNW   12.5   14.3   11.9  1015.0  0.00  0.00   0.012   0.000   25.6    50   14.4   25.6   9.19  .0727    116    1    100.0    5 
21/09/18  19:15   14.9   14.9   14.9    63    7.9  13.0     W   1.08  20.0   WNW   12.2   14.3   11.6  1015.0  0.00  0.00   0.012   0.000   25.6    50   14.4   25.6   9.19  .0727    116    1    100.0    5 
21/09/18  19:20   14.8   14.9   14.8    64    8.1  11.0     W   0.92  17.0   WNW   12.7   14.2   12.1  1015.0  0.00  0.00   0.012   0.000   25.5    50   14.3   25.5   9.19  .0728    117    1    100.0    5 
21/09/18  19:25   14.7   14.8   14.7    64    8.0  11.0     W   0.92  19.0     W   12.6   14.1   11.9  1015.2  0.00  0.00   0.013   0.000   25.5    50   14.3   25.5   9.19  .0728    117    1    100.0    5 
21/09/18  19:30   14.7   14.7   14.7    65    8.2   8.0     W   0.67  14.0     W   13.7   14.1   13.1  1015.4  0.00  0.00   0.013   0.000   25.4    50   14.3   25.4   9.19  .0728    116    1    100.0    5 
21/09/18  19:35   14.6   14.7   14.6    65    8.0   7.0     W   0.58  14.0     W   13.9   14.0   13.3  1015.6  0.00  0.00   0.013   0.000   25.4    50   14.3   25.4   9.19  .0728    116    1    100.0    5 
21/09/18  19:40   14.5   14.6   14.5    65    8.0   8.0     W   0.67  14.0   WNW   13.4   13.9   12.9  1015.8  0.00  0.00   0.013   0.000   25.4    50   14.2   25.3   9.20  .0729    117    1    100.0    5 
21/09/18  19:45   14.4   14.5   14.4    66    8.1   7.0     W   0.58  13.0   WSW   13.7   13.8   13.2  1015.8  0.00  0.00   0.014   0.000   25.4    50   14.2   25.3   9.20  .0729    117    1    100.0    5 
21/09/18  19:50   14.3   14.4   14.3    66    8.1   6.0     W   0.50  11.0     W   13.9   13.8   13.3  1016.0  0.00  0.00   0.014   0.000   25.4    50   14.2   25.3   9.20  .0729    115    1    100.0    5 
21/09/18  19:55   14.2   14.3   14.2    67    8.2   6.0     W   0.50  11.0     W   13.7   13.7   13.2  1016.0  0.00  0.00   0.014   0.000   25.3    50   14.2   25.3   9.20  .0729    115    1    100.0    5 
21/09/18  20:00   14.2   14.2   14.1    67    8.1   5.0     W   0.42   8.0     W   13.9   13.7   13.4  1016.2  0.00  0.00   0.014   0.000   25.3    50   14.1   25.2   9.20  .0729    116    1    100.0    5 
21/09/18  20:05   14.0   14.1   14.0    68    8.2   6.0     W   0.50  11.0     W   13.4   13.5   12.9  1016.3  0.00  0.00   0.015   0.000   25.3    50   14.1   25.2   9.20  .0729    118    1    100.0    5 
21/09/18  20:10   13.9   14.0   13.9    68    8.1   6.0     W   0.50  12.0     W   13.4   13.4   12.9  1016.3  0.00  0.00   0.015   0.000   25.3    50   14.1   25.2   9.20  .0729    116    1    100.0    5 
21/09/18  20:15   13.9   13.9   13.9    68    8.1   8.0     W   0.67  14.0     W   12.7   13.4   12.2  1016.3  0.00  0.00   0.015   0.000   25.3    50   14.1   25.2   9.20  .0729    117    1    100.0    5 
21/09/18  20:20   13.8   13.9   13.8    68    8.0   7.0     W   0.58  13.0     W   13.1   13.3   12.6  1016.5  0.00  0.00   0.016   0.000   25.2    50   14.1   25.2   9.20  .0730    117    1    100.0    5 
21/09/18  20:25   13.8   13.8   13.8    68    8.0   8.0     W   0.67  12.0     W   12.7   13.3   12.2  1016.6  0.00  0.00   0.016   0.000   25.2    50   14.1   25.2   9.20  .0730    116    1    100.0    5 
21/09/18  20:30   13.8   13.8   13.8    68    8.0   8.0     W   0.67  14.0     W   12.6   13.3   12.1  1016.6  0.00  0.00   0.016   0.000   25.2    50   14.0   25.1   9.20  .0730    114    1    100.0    5 
21/09/18  20:35   13.7   13.8   13.7    67    7.7   8.0     W   0.67  15.0     W   12.5   13.2   12.0  1016.8  0.00  0.00   0.016   0.000   25.2    50   14.0   25.1   9.20  .0730    115    1    100.0    5 
21/09/18  20:40   13.7   13.7   13.7    67    7.7   8.0     W   0.67  15.0     W   12.5   13.2   12.0  1016.8  0.00  0.00   0.016   0.000   25.1    50   14.0   25.0   9.21  .0730    117    1    100.0    5 
21/09/18  20:45   13.7   13.7   13.7    67    7.7   8.0     W   0.67  13.0   WNW   12.5   13.2   12.0  1016.9  0.00  0.00   0.016   0.000   25.1    50   14.0   25.0   9.21  .0730    115    1    100.0    5 
21/09/18  20:50   13.7   13.7   13.7    67    7.6   7.0     W   0.58  13.0   WSW   12.8   13.2   12.3  1016.9  0.00  0.00   0.016   0.000   25.1    50   13.9   24.9   9.21  .0730    117    1    100.0    5 
21/09/18  20:55   13.6   13.7   13.6    67    7.6   8.0     W   0.67  12.0   WSW   12.4   13.1   11.9  1017.0  0.00  0.00   0.016   0.000   25.1    50   13.9   24.9   9.21  .0731    117    1    100.0    5 
21/09/18  21:00   13.6   13.7   13.6    68    7.8   7.0     W   0.58  10.0     W   12.7   13.1   12.2  1017.0  0.00  0.00   0.017   0.000   25.1    50   13.9   24.9   9.21  .0731    116    1    100.0    5 
21/09/18  21:05   13.5   13.6   13.5    68    7.7   7.0     W   0.58  12.0     W   12.7   13.0   12.2  1017.0  0.00  0.00   0.017   0.000   25.0    50   13.9   24.9   9.21  .0731    118    1    100.0    5 
21/09/18  21:10   13.4   13.5   13.4    68    7.7   7.0     W   0.58  13.0     W   12.6   12.9   12.1  1017.1  0.00  0.00   0.017   0.000   25.0    50   13.9   24.9   9.21  .0731    116    1    100.0    5 
21/09/18  21:15   13.4   13.4   13.4    69    7.8   6.0     W   0.50  11.0     W   12.7   12.9   12.3  1017.3  0.00  0.00   0.017   0.000   24.9    50   13.8   24.8   9.21  .0731    116    1    100.0    5 
21/09/18  21:20   13.4   13.4   13.4    69    7.8   7.0     W   0.58  12.0     W   12.5   12.9   12.1  1017.4  0.00  0.00   0.017   0.000   24.9    50   13.8   24.8   9.21  .0731    117    1    100.0    5 
21/09/18  21:25   13.4   13.4   13.4    69    7.8   7.0     W   0.58  13.0     W   12.5   12.9   12.1  1017.3  0.00  0.00   0.017   0.000   24.9    50   13.8   24.8   9.21  .0731    116    1    100.0    5 
21/09/18  21:30   13.4   13.4   13.4    69    7.9   9.0     W   0.75  13.0   WNW   11.8   13.0   11.3  1017.2  0.00  0.00   0.017   0.000   24.9    50   13.8   24.8   9.21  .0731    116    1    100.0    5 
21/09/18  21:35   13.4   13.4   13.4    69    7.9   8.0     W   0.67  13.0   WNW   12.2   13.0   11.7  1017.2  0.00  0.00   0.017   0.000   24.9    50   13.8   24.8   9.21  .0731    117    1    100.0    5 
21/09/18  21:40   13.5   13.5   13.4    69    7.9   8.0     W   0.67  14.0     W   12.3   13.1   11.8  1017.4  0.00  0.00   0.017   0.000   24.8    50   13.7   24.8   9.22  .0731    117    1    100.0    5 
21/09/18  21:45   13.5   13.6   13.5    69    7.9   8.0     W   0.67  13.0     W   12.3   13.1   11.8  1017.5  0.00  0.00   0.017   0.000   24.8    50   13.6   24.7   9.22  .0732    116    1    100.0    5 
21/09/18  21:50   13.5   13.6   13.5    68    7.7   7.0     W   0.58  15.0     W   12.7   13.0   12.2  1017.5  0.00  0.00   0.017   0.000   24.8    50   13.6   24.7   9.22  .0732    117    1    100.0    5 
21/09/18  21:55   13.5   13.5   13.5    68    7.7   8.0     W   0.67  13.0     W   12.3   13.0   11.8  1017.7  0.00  0.00   0.017   0.000   24.7    50   13.6   24.7   9.22  .0732    117    1    100.0    5 
21/09/18  22:00   13.5   13.5   13.5    68    7.7   8.0     W   0.67  14.0   WSW   12.3   13.0   11.8  1017.8  0.00  0.00   0.017   0.000   24.7    50   13.6   24.7   9.22  .0732    117    1    100.0    5 
21/09/18  22:05   13.5   13.5   13.4    68    7.7   9.0     W   0.75  14.0   WNW   11.8   13.0   11.3  1017.8  0.00  0.00   0.017   0.000   24.7    50   13.6   24.7   9.22  .0732    117    1    100.0    5 
21/09/18  22:10   13.5   13.5   13.5    68    7.7   9.0     W   0.75  17.0   WNW   11.8   13.0   11.3  1017.7  0.00  0.00   0.017   0.000   24.7    50   13.5   24.6   9.22  .0732    116    1    100.0    5 
21/09/18  22:15   13.5   13.5   13.5    68    7.7   9.0     W   0.75  13.0     W   11.8   13.0   11.3  1017.8  0.00  0.00   0.017   0.000   24.7    50   13.5   24.6   9.22  .0732    116    1    100.0    5 
21/09/18  22:20   13.4   13.5   13.4    68    7.7   8.0     W   0.67  13.0   WNW   12.2   12.9   11.7  1017.8  0.00  0.00   0.017   0.000   24.7    50   13.5   24.6   9.22  .0732    116    1    100.0    5 
21/09/18  22:25   13.4   13.4   13.4    68    7.6   5.0     W   0.42   9.0     W   13.0   12.9   12.5  1018.0  0.00  0.00   0.017   0.000   24.6    50   13.5   24.6   9.22  .0733    117    1    100.0    5 
21/09/18  22:30   13.3   13.4   13.3    68    7.5   6.0     W   0.50   9.0     W   12.6   12.8   12.1  1018.1  0.00  0.00   0.018   0.000   24.6    50   13.5   24.6   9.22  .0733    115    1    100.0    5 
21/09/18  22:35   13.3   13.3   13.3    69    7.7   8.0     W   0.67  12.0     W   12.0   12.8   11.6  1018.2  0.00  0.00   0.018   0.000   24.6    50   13.5   24.6   9.22  .0733    116    1    100.0    5 
21/09/18  22:40   13.2   13.3   13.2    69    7.7   7.0     W   0.58  14.0   WNW   12.3   12.8   11.9  1018.2  0.00  0.00   0.018   0.000   24.6    50   13.4   24.6   9.23  .0733    117    1    100.0    5 
21/09/18  22:45   13.2   13.2   13.2    69    7.6   7.0     W   0.58  11.0     W   12.2   12.7   11.8  1018.2  0.00  0.00   0.018   0.000   24.6    50   13.4   24.6   9.23  .0733    117    1    100.0    5 
21/09/18  22:50   13.2   13.2   13.2    69    7.6   7.0   WNW   0.58  11.0   WNW   12.2   12.7   11.8  1018.2  0.00  0.00   0.018   0.000   24.6    50   13.4   24.6   9.23  .0733    117    1    100.0    5 
21/09/18  22:55   13.1   13.2   13.1    70    7.7   5.0   WNW   0.42   9.0   WNW   12.6   12.6   12.2  1018.3  0.00  0.00   0.018   0.000   24.5    50   13.4   24.5   9.23  .0733    117    1    100.0    5 
21/09/18  23:00   13.0   13.1   13.0    70    7.7   5.0   WNW   0.42   8.0   WNW   12.6   12.6   12.1  1018.3  0.00  0.00   0.019   0.000   24.5    50   13.4   24.5   9.23  .0733    115    1    100.0    5 
21/09/18  23:05   12.9   13.0   12.9    70    7.6   5.0   WNW   0.42   8.0   WNW   12.5   12.5   12.1  1018.4  0.00  0.00   0.019   0.000   24.4    50   13.3   24.4   9.23  .0733    116    1    100.0    5 
21/09/18  23:10   12.9   12.9   12.9    71    7.8   4.0     W   0.33  10.0   WNW   12.7   12.5   12.3  1018.3  0.00  0.00   0.019   0.000   24.4    50   13.3   24.4   9.23  .0733    117    1    100.0    5 
21/09/18  23:15   12.9   12.9   12.8    71    7.8   4.0     W   0.33   8.0     W   12.7   12.5   12.3  1018.3  0.00  0.00   0.019   0.000   24.4    50   13.3   24.4   9.23  .0733    118    1    100.0    5 
21/09/18  23:20   12.8   12.9   12.8    71    7.7   5.0     W   0.42   8.0     W   12.3   12.4   11.9  1018.5  0.00  0.00   0.019   0.000   24.4    50   13.3   24.4   9.23  .0734    117    1    100.0    5 
21/09/18  23:25   12.8   12.8   12.8    71    7.6   4.0     W   0.33   7.0     W   12.6   12.4   12.2  1018.5  0.00  0.00   0.019   0.000   24.4    50   13.3   24.4   9.23  .0734    117    1    100.0    5 
21/09/18  23:30   12.8   12.8   12.8    72    7.9   5.0     W   0.42   9.0     W   12.3   12.4   11.9  1018.6  0.00  0.00   0.019   0.000   24.4    50   13.3   24.4   9.23  .0734    116    1    100.0    5 
21/09/18  23:35   12.8   12.8   12.8    72    7.9   5.0     W   0.42   9.0     W   12.3   12.4   11.9  1018.7  0.00  0.00   0.019   0.000   24.4    50   13.3   24.4   9.23  .0734    116    1    100.0    5 
21/09/18  23:40   12.7   12.8   12.7    72    7.8   4.0     W   0.33   8.0     W   12.5   12.3   12.1  1018.8  0.00  0.00   0.019   0.000   24.4    50   13.3   24.4   9.23  .0734    116    1    100.0    5 
21/09/18  23:45   12.7   12.7   12.7    72    7.7   4.0     W   0.33   7.0     W   12.4   12.3   12.1  1019.0  0.00  0.00   0.020   0.000   24.4    51   13.6   24.4   9.35  .0734    116    1    100.0    5 
21/09/18  23:50   12.6   12.7   12.6    72    7.7   4.0     W   0.33   7.0     W   12.4   12.2   12.0  1018.9  0.00  0.00   0.020   0.000   24.4    51   13.6   24.4   9.35  .0734    116    1    100.0    5 
21/09/18  23:55   12.6   12.7   12.6    72    7.6   4.0     W   0.33   6.0     W   12.3   12.2   11.9  1018.9  0.00  0.00   0.020   0.000   24.4    51   13.6   24.4   9.35  .0734    117    1    100.0    5 
22/09/18  00:00   12.5   12.6   12.5    72    7.6   3.0     W   0.25   5.0     W   12.5   12.1   12.1  1018.8  0.00  0.00   0.020   0.000   24.4    51   13.6   24.4   9.35  .0734    117    1    100.0    5 
22/09/18   0:05   12.4   12.5   12.4    73    7.7   4.0     W   0.33   6.0     W   12.2   12.1   11.8  1018.9  0.00  0.00   0.020   0.000   24.3    51   13.5   24.4   9.35  .0734    116    1    100.0    5 
22/09/18   0:10   12.4   12.4   12.4    73    7.7   4.0     W   0.33   6.0     W   12.1   12.1   11.8  1019.0  0.00  0.00   0.021   0.000   24.3    51   13.5   24.4   9.35  .0734    114    1    100.0    5 
22/09/18   0:15   12.3   12.4   12.3    73    7.6   4.0     W   0.33   6.0     W   12.1   12.0   11.7  1019.0  0.00  0.00   0.021   0.000   24.3    51   13.5   24.4   9.35  .0734    115    1    100.0    5 
22/09/18   0:20   12.3   12.3   12.3    73    7.6   2.0     W   0.17   5.0     W   12.3   11.9   11.9  1019.0  0.00  0.00   0.021   0.000   24.3    51   13.5   24.4   9.35  .0734    117    1    100.0    5 
22/09/18   0:25   12.2   12.3   12.2    74    7.7   3.0     W   0.25   5.0     W   12.2   11.9   11.9  1019.0  0.00  0.00   0.021   0.000   24.3    51   13.5   24.4   9.35  .0734    117    1    100.0    5 
22/09/18   0:30   12.2   12.2   12.2    74    7.7   4.0     W   0.33   6.0     W   11.9   11.9   11.7  1019.0  0.00  0.00   0.021   0.000   24.3    52   13.8   24.4   9.53  .0734    116    1    100.0    5 
22/09/18   0:35   12.2   12.2   12.2    74    7.7   4.0     W   0.33   6.0     W   11.9   11.9   11.6  1018.8  0.00  0.00   0.021   0.000   24.3    51   13.5   24.4   9.35  .0734    117    1    100.0    5 
22/09/18   0:40   12.2   12.2   12.2    74    7.7   3.0     W   0.25   6.0     W   12.2   11.9   11.9  1018.9  0.00  0.00   0.021   0.000   24.3    51   13.5   24.4   9.35  .0734    118    1    100.0    5 
22/09/18   0:45   12.2   12.2   12.2    75    7.9   3.0     W   0.25   6.0     W   12.2   11.9   11.9  1018.7  0.00  0.00   0.021   0.000   24.3    51   13.5   24.3   9.35  .0734    117    1    100.0    5 
22/09/18   0:50   12.2   12.2   12.2    74    7.7   3.0     W   0.25   6.0     W   12.2   11.9   11.9  1018.8  0.00  0.00   0.021   0.000   24.3    51   13.5   24.3   9.35  .0734    117    1    100.0    5 
22/09/18   0:55   12.2   12.2   12.2    75    7.9   3.0     W   0.25   6.0     W   12.2   11.9   11.9  1018.7  0.00  0.00   0.021   0.000   24.3    51   13.5   24.3   9.35  .0734    117    1    100.0    5 
22/09/18   1:00   12.2   12.2   12.2    75    7.9   4.0     W   0.33   7.0     W   11.9   11.9   11.6  1018.8  0.00  0.00   0.021   0.000   24.2    51   13.4   24.3   9.35  .0734    116    1    100.0    5 
22/09/18   1:05   12.2   12.2   12.2    75    7.9   4.0     W   0.33   7.0     W   11.9   11.9   11.6  1018.7  0.00  0.00   0.021   0.000   24.2    52   13.7   24.3   9.54  .0734    116    1    100.0    5 
22/09/18   1:10   12.2   12.2   12.2    75    7.9   5.0     W   0.42   7.0     W   11.6   11.9   11.3  1019.0  0.00  0.00   0.021   0.000   24.2    51   13.4   24.3   9.35  .0734    115    1    100.0    5 
22/09/18   1:15   12.2   12.2   12.2    75    7.9   5.0     W   0.42  10.0     W   11.6   11.9   11.3  1018.7  0.00  0.00   0.021   0.000   24.2    51   13.4   24.3   9.35  .0734    117    1    100.0    5 
22/09/18   1:20   12.2   12.2   12.2    75    7.9   6.0     W   0.50  10.0     W   11.3   11.9   11.1  1019.0  0.00  0.00   0.021   0.000   24.2    51   13.4   24.3   9.35  .0734    117    1    100.0    5 
22/09/18   1:25   12.2   12.2   12.2    75    7.9   5.0   WNW   0.42   8.0   WNW   11.6   11.9   11.3  1019.1  0.00  0.00   0.021   0.000   24.2    52   13.7   24.3   9.54  .0734    116    1    100.0    5 
22/09/18   1:30   12.2   12.2   12.2    75    7.9   3.0   WNW   0.25   6.0   WNW   12.2   11.9   11.9  1019.0  0.00  0.00   0.021   0.000   24.2    51   13.4   24.2   9.35  .0735    117    1    100.0    5 
22/09/18   1:35   12.2   12.2   12.2    76    8.1   3.0   WNW   0.25   7.0   WNW   12.2   11.9   11.9  1019.1  0.00  0.00   0.021   0.000   24.2    52   13.7   24.3   9.54  .0734    117    1    100.0    5 
22/09/18   1:40   12.1   12.2   12.1    76    8.0   4.0   WNW   0.33   7.0   WNW   11.8   11.8   11.6  1019.2  0.00  0.00   0.022   0.000   24.2    51   13.4   24.2   9.35  .0735    116    1    100.0    5 
22/09/18   1:45   12.1   12.1   12.1    76    8.0   5.0   WNW   0.42   7.0   WNW   11.5   11.8   11.2  1019.3  0.00  0.00   0.022   0.000   24.2    51   13.4   24.2   9.35  .0735    116    1    100.0    5 
22/09/18   1:50   12.1   12.1   12.1    76    8.0   4.0   WNW   0.33   7.0   WNW   11.8   11.8   11.6  1019.1  0.00  0.00   0.022   0.000   24.2    52   13.7   24.3   9.54  .0734    117    1    100.0    5 
22/09/18   1:55   12.1   12.1   12.1    76    8.0   4.0   WNW   0.33   8.0   WNW   11.8   11.8   11.6  1018.9  0.00  0.00   0.022   0.000   24.1    52   13.6   24.2   9.54  .0734    117    1    100.0    5 
22/09/18   2:00   12.1   12.1   12.1    76    8.0   3.0   WNW   0.25   6.0   WNW   12.1   11.8   11.8  1018.6  0.00  0.00   0.022   0.000   24.1    52   13.6   24.2   9.54  .0734    117    1    100.0    5 
22/09/18   2:05   12.1   12.1   12.1    76    8.0   4.0   WNW   0.33   6.0   WNW   11.7   11.8   11.4  1018.7  0.00  0.00   0.022   0.000   24.1    52   13.6   24.2   9.54  .0734    116    1    100.0    5 
22/09/18   2:10   12.1   12.1   12.1    76    8.0   3.0   WNW   0.25   6.0   WNW   12.1   11.8   11.8  1018.9  0.00  0.00   0.022   0.000   24.1    52   13.6   24.2   9.54  .0735    115    1    100.0    5 
22/09/18   2:15   12.1   12.1   12.1    76    8.0   2.0   WNW   0.17   6.0   WNW   12.1   11.8   11.8  1019.0  0.00  0.00   0.022   0.000   24.1    52   13.6   24.2   9.54  .0735    115    1    100.0    5 
22/09/18   2:20   12.1   12.1   12.1    76    8.0   2.0   WNW   0.17   6.0   WNW   12.1   11.8   11.8  1019.0  0.00  0.00   0.022   0.000   24.1    52   13.6   24.2   9.54  .0735    117    1    100.0    5 
22/09/18   2:25   12.1   12.1   12.1    76    8.0   3.0   WNW   0.25   6.0   WNW   12.1   11.8   11.8  1018.9  0.00  0.00   0.022   0.000   24.1    52   13.6   24.2   9.54  .0735    117    1    100.0    5 
22/09/18   2:30   12.1   12.1   12.1    76    8.0   2.0   WNW   0.17   4.0   WNW   12.1   11.8   11.8  1018.9  0.00  0.00   0.022   0.000   24.0    52   13.5   24.1   9.55  .0735    116    1    100.0    5 
22/09/18   2:35   12.1   12.1   12.1    77    8.1   3.0   WNW   0.25   5.0   WNW   12.1   11.8   11.8  1018.8  0.00  0.00   0.022   0.000   24.0    52   13.5   24.1   9.55  .0735    116    1    100.0    5 
22/09/18   2:40   12.1   12.1   12.1    77    8.1   2.0   WNW   0.17   6.0   WNW   12.1   11.8   11.8  1019.0  0.00  0.00   0.022   0.000   24.0    52   13.5   24.1   9.55  .0735    116    1    100.0    5 
22/09/18   2:45   12.1   12.1   12.1    77    8.1   2.0   WNW   0.17   5.0   WNW   12.1   11.8   11.8  1018.9  0.00  0.00   0.022   0.000   24.0    52   13.5   24.1   9.55  .0735    117    1    100.0    5 
22/09/18   2:50   12.1   12.1   12.1    77    8.1   3.0   WNW   0.25   6.0   WNW   12.1   11.8   11.8  1018.9  0.00  0.00   0.022   0.000   23.9    52   13.5   24.1   9.55  .0735    116    1    100.0    5 
22/09/18   2:55   12.1   12.1   12.1    77    8.1   3.0   WNW   0.25   5.0   WNW   12.1   11.8   11.8  1018.8  0.00  0.00   0.022   0.000   23.9    52   13.5   24.1   9.55  .0735    116    1    100.0    5 
22/09/18   3:00   12.0   12.1   12.0    77    8.1   3.0   WNW   0.25   6.0   WNW   12.0   11.8   11.8  1018.7  0.00  0.00   0.022   0.000   23.9    51   13.2   24.1   9.35  .0735    117    1    100.0    5 
22/09/18   3:05   12.0   12.0   12.0    77    8.1   4.0   WNW   0.33   6.0   WNW   11.7   11.8   11.4  1018.8  0.00  0.00   0.022   0.000   23.9    52   13.5   24.1   9.55  .0735    117    1    100.0    5 
22/09/18   3:10   12.0   12.0   12.0    77    8.1   4.0   WNW   0.33   7.0   WNW   11.7   11.8   11.4  1018.7  0.00  0.00   0.022   0.000   23.9    51   13.1   24.0   9.35  .0735    115    1    100.0    5 
22/09/18   3:15   11.9   12.0   11.9    77    8.0   4.0   WNW   0.33   6.0   WNW   11.6   11.7   11.4  1018.7  0.00  0.00   0.022   0.000   23.9    52   13.4   24.1   9.55  .0735    115    1    100.0    5 
22/09/18   3:20   11.9   11.9   11.9    77    8.0   4.0   WNW   0.33   6.0   WNW   11.6   11.7   11.4  1018.8  0.00  0.00   0.022   0.000   23.9    52   13.4   24.1   9.55  .0735    116    1    100.0    5 
22/09/18   3:25   11.9   11.9   11.9    77    8.0   4.0   WNW   0.33   7.0   WNW   11.6   11.7   11.4  1018.8  0.00  0.00   0.022   0.000   23.9    52   13.4   24.1   9.55  .0735    116    1    100.0    5 
22/09/18   3:30   11.9   11.9   11.9    78    8.2   4.0   WNW   0.33   7.0   WNW   11.6   11.7   11.3  1018.8  0.00  0.00   0.022   0.000   23.9    52   13.4   24.1   9.55  .0735    117    1    100.0    5 
22/09/18   3:35   11.9   11.9   11.9    78    8.2   4.0   WNW   0.33   7.0   WNW   11.6   11.7   11.3  1018.8  0.00  0.00   0.022   0.000   23.9    52   13.4   24.1   9.55  .0735    116    1    100.0    5 
22/09/18   3:40   11.9   11.9   11.9    78    8.2   3.0   WNW   0.25   7.0   WNW   11.9   11.7   11.7  1019.0  0.00  0.00   0.022   0.000   23.8    52   13.4   23.9   9.55  .0735    117    1    100.0    5 
22/09/18   3:45   11.8   11.9   11.8    78    8.1   4.0   WNW   0.33   7.0   WNW   11.5   11.6   11.3  1019.0  0.00  0.00   0.023   0.000   23.8    52   13.4   23.9   9.55  .0735    117    1    100.0    5 
22/09/18   3:50   11.8   11.9   11.8    78    8.1   4.0   WNW   0.33   6.0   WNW   11.5   11.6   11.3  1019.0  0.00  0.00   0.023   0.000   23.8    52   13.4   23.9   9.55  .0735    117    1    100.0    5 
22/09/18   3:55   11.8   11.8   11.8    78    8.1   3.0   WNW   0.25   6.0   WNW   11.8   11.6   11.6  1019.0  0.00  0.00   0.023   0.000   23.9    52   13.4   24.1   9.55  .0735    117    1    100.0    5 
22/09/18   4:00   11.8   11.8   11.8    78    8.1   2.0   WNW   0.17   6.0   WNW   11.8   11.6   11.6  1018.9  0.00  0.00   0.023   0.000   23.9    51   13.1   24.0   9.35  .0735    117    1    100.0    5 
22/09/18   4:05   11.8   11.8   11.8    78    8.1   4.0   WNW   0.33   7.0   WNW   11.5   11.6   11.3  1019.0  0.00  0.00   0.023   0.000   23.9    51   13.1   24.0   9.35  .0735    116    1    100.0    5 
22/09/18   4:10   11.8   11.8   11.8    78    8.1   4.0   WNW   0.33   8.0   WNW   11.5   11.6   11.3  1019.2  0.00  0.00   0.023   0.000   23.8    51   13.1   23.9   9.35  .0736    116    1    100.0    5 
22/09/18   4:15   11.8   11.8   11.8    79    8.3   5.0   WNW   0.42   8.0   WNW   11.2   11.7   11.0  1019.0  0.00  0.00   0.023   0.000   23.8    52   13.4   23.9   9.55  .0735    117    1    100.0    5 
22/09/18   4:20   11.8   11.8   11.8    79    8.3   4.0   WNW   0.33   7.0   WNW   11.5   11.7   11.3  1019.1  0.00  0.00   0.023   0.000   23.8    52   13.3   23.9   9.55  .0736    116    1    100.0    5 
22/09/18   4:25   11.8   11.8   11.8    79    8.3   3.0   WNW   0.25   6.0   WNW   11.8   11.7   11.7  1019.0  0.00  0.00   0.023   0.000   23.8    52   13.3   23.9   9.55  .0736    115    1    100.0    5 
22/09/18   4:30   11.9   11.9   11.8    79    8.4   2.0   WNW   0.17   5.0   WNW   11.9   11.7   11.7  1018.9  0.00  0.00   0.022   0.000   23.7    52   13.3   23.8   9.56  .0736    116    1    100.0    5 
22/09/18   4:35   11.9   11.9   11.9    79    8.4   4.0   WNW   0.33   9.0   WNW   11.6   11.8   11.4  1018.9  0.00  0.00   0.022   0.000   23.7    52   13.3   23.8   9.56  .0736    115    1    100.0    5 
22/09/18   4:40   12.0   12.0   11.9    79    8.5   4.0   WNW   0.33  10.0   WNW   11.7   11.8   11.5  1018.8  0.00  0.00   0.022   0.000   23.7    52   13.3   23.8   9.56  .0736    117    1    100.0    5 
22/09/18   4:45   12.1   12.1   12.0    79    8.5   4.0   WNW   0.33   8.0   WNW   11.7   11.9   11.6  1018.8  0.00  0.00   0.022   0.000   23.7    52   13.2   23.7   9.56  .0736    117    1    100.0    5 
22/09/18   4:50   12.1   12.1   12.1    79    8.6   5.0   WNW   0.42   9.0   WNW   11.5   11.9   11.3  1018.8  0.00  0.00   0.022   0.000   23.7    52   13.2   23.7   9.56  .0736    117    1    100.0    5 
22/09/18   4:55   12.2   12.2   12.1    79    8.6   6.0     W   0.50   9.0   WNW   11.3   12.0   11.1  1018.8  0.00  0.00   0.021   0.000   23.7    52   13.2   23.7   9.56  .0736    118    1    100.0    5 
22/09/18   5:00   12.2   12.2   12.2    79    8.7   5.0   WNW   0.42   9.0   WNW   11.6   12.1   11.4  1018.7  0.00  0.00   0.021   0.000   23.6    52   13.2   23.7   9.56  .0736    115    1    100.0    5 
22/09/18   5:05   12.3   12.3   12.2    79    8.7   4.0   WNW   0.33  10.0   WNW   12.0   12.1   11.8  1018.7  0.00  0.00   0.021   0.000   23.6    52   13.2   23.7   9.56  .0736    116    1    100.0    5 
22/09/18   5:10   12.3   12.3   12.3    78    8.6   5.0   WNW   0.42   9.0     W   11.7   12.1   11.4  1018.7  0.00  0.00   0.021   0.000   23.6    52   13.2   23.7   9.56  .0736    116    1    100.0    5 
22/09/18   5:15   12.3   12.3   12.3    78    8.6   5.0   WNW   0.42   9.0     W   11.7   12.1   11.4  1018.6  0.00  0.00   0.021   0.000   23.6    52   13.2   23.7   9.56  .0736    115    1    100.0    5 
22/09/18   5:20   12.3   12.3   12.3    78    8.6   5.0     W   0.42   9.0     W   11.7   12.1   11.5  1018.6  0.00  0.00   0.021   0.000   23.6    52   13.1   23.6   9.56  .0736    116    1    100.0    5 
22/09/18   5:25   12.3   12.3   12.3    78    8.6   5.0     W   0.42   9.0     W   11.7   12.1   11.5  1018.7  0.00  0.00   0.021   0.000   23.6    52   13.1   23.6   9.56  .0736    116    1    100.0    5 
22/09/18   5:30   12.3   12.3   12.3    78    8.6   5.0   WNW   0.42   9.0   WNW   11.7   12.1   11.5  1018.6  0.00  0.00   0.021   0.000   23.6    52   13.1   23.6   9.56  .0736    116    1    100.0    5 
22/09/18   5:35   12.3   12.3   12.3    78    8.6   5.0   WNW   0.42   8.0   WNW   11.7   12.1   11.5  1018.6  0.00  0.00   0.021   0.000   23.6    52   13.1   23.6   9.56  .0736    116    1    100.0    5 
22/09/18   5:40   12.3   12.3   12.3    78    8.6   5.0   WNW   0.42   8.0   WNW   11.7   12.1   11.5  1018.7  0.00  0.00   0.021   0.000   23.6    52   13.1   23.6   9.56  .0736    116    1    100.0    5 
22/09/18   5:45   12.3   12.3   12.3    79    8.7   5.0   WNW   0.42   8.0   WNW   11.7   12.1   11.5  1018.7  0.00  0.00   0.021   0.000   23.6    52   13.1   23.6   9.56  .0736    117    1    100.0    5 
22/09/18   5:50   12.2   12.3   12.2    79    8.7   4.0   WNW   0.33   7.0   WNW   11.9   12.1   11.8  1018.6  0.00  0.00   0.021   0.000   23.5    52   13.1   23.5   9.56  .0736    117    1    100.0    5 
22/09/18   5:55   12.2   12.2   12.2    79    8.6   4.0   WNW   0.33   7.0   WNW   11.9   12.0   11.7  1018.7  0.00  0.00   0.021   0.000   23.5    52   13.1   23.5   9.56  .0736    116    1    100.0    5 
22/09/18   6:00   12.2   12.2   12.2    79    8.6   4.0   WNW   0.33   7.0   WNW   11.9   12.0   11.7  1018.8  0.00  0.00   0.021   0.000   23.5    52   13.1   23.5   9.56  .0736    117    1    100.0    5 
22/09/18   6:05   12.2   12.2   12.2    79    8.6   3.0   WNW   0.25   6.0   WNW   12.2   12.0   12.0  1018.8  0.00  0.00   0.021   0.000   23.5    52   13.1   23.5   9.56  .0736    116    1    100.0    5 
22/09/18   6:10   12.1   12.2   12.1    79    8.6   3.0   WNW   0.25   4.0   WNW   12.1   11.9   11.9  1018.8  0.00  0.00   0.022   0.000   23.5    52   13.1   23.5   9.56  .0736    117    1    100.0    5 
22/09/18   6:15   12.1   12.1   12.1    79    8.6   0.0   WNW   0.00   3.0   WNW   12.1   11.9   11.9  1018.8  0.00  0.00   0.022   0.000   23.5    52   13.1   23.5   9.56  .0736    115    1    100.0    5 
22/09/18   6:20   12.1   12.1   12.1    79    8.5   1.0   WNW   0.08   3.0   WNW   12.1   11.9   11.9  1018.7  0.00  0.00   0.022   0.000   23.4    52   13.0   23.4   9.57  .0736    117    1    100.0    5 
22/09/18   6:25   12.1   12.1   12.1    79    8.5   1.0   WNW   0.08   5.0   WNW   12.1   11.9   11.9  1018.8  0.00  0.00   0.022   0.000   23.4    52   13.0   23.4   9.57  .0736    114    1    100.0    5 
22/09/18   6:30   12.1   12.1   12.1    79    8.5   3.0   WNW   0.25   5.0   WNW   12.1   11.9   11.9  1018.9  0.00  0.00   0.022   0.000   23.4    52   13.0   23.4   9.57  .0737    117    1    100.0    5 
22/09/18   6:35   12.0   12.1   12.0    79    8.5   3.0   WNW   0.25   5.0   WNW   12.0   11.8   11.8  1018.8  0.00  0.00   0.022   0.000   23.4    52   13.0   23.4   9.57  .0736    116    1    100.0    5 
22/09/18   6:40   12.1   12.1   12.0    80    8.7   3.0   WNW   0.25   6.0   WNW   12.1   11.9   11.9  1018.9  0.00  0.00   0.022   0.000   23.4    52   13.0   23.4   9.57  .0736    116    1    100.0    5 
22/09/18   6:45   12.1   12.1   12.0    80    8.7   2.0   WNW   0.17   5.0   WNW   12.1   11.9   11.9  1018.8  0.00  0.00   0.022   0.000   23.4    52   13.0   23.3   9.57  .0737    116    1    100.0    5 
22/09/18   6:50   12.1   12.1   12.0    80    8.7   2.0   WNW   0.17   4.0   WNW   12.1   11.9   11.9  1018.9  0.00  0.00   0.022   0.000   23.4    52   13.0   23.3   9.57  .0737    117    1    100.0    5 
22/09/18   6:55   12.1   12.1   12.0    80    8.7   3.0   WNW   0.25   6.0   WNW   12.1   11.9   11.9  1018.9  0.00  0.00   0.022   0.000   23.4    52   13.0   23.4   9.57  .0737    117    1    100.0    5 
22/09/18   7:00   12.1   12.1   12.1    80    8.7   3.0   WNW   0.25   6.0   WNW   12.1   11.9   11.9  1018.9  0.00  0.00   0.022   0.000   23.3    52   12.9   23.3   9.57  .0737    116    1    100.0    5 
22/09/18   7:05   12.1   12.1   12.1    80    8.7   3.0   WNW   0.25   6.0   WNW   12.1   11.9   11.9  1018.9  0.00  0.00   0.022   0.000   23.3    52   12.9   23.3   9.57  .0737    117    1    100.0    5 
22/09/18   7:10   12.1   12.1   12.1    80    8.8   2.0   WNW   0.17   6.0   WNW   12.1   11.9   11.9  1019.1  0.00  0.00   0.022   0.000   23.3    52   12.9   23.3   9.57  .0737    116    1    100.0    5 
22/09/18   7:15   12.1   12.1   12.1    80    8.8   2.0   WNW   0.17   5.0   WNW   12.1   11.9   11.9  1019.1  0.00  0.00   0.022   0.000   23.3    52   12.9   23.3   9.57  .0737    117    1    100.0    5 
22/09/18   7:20   12.1   12.1   12.1    80    8.7   3.0   WNW   0.25   7.0   WNW   12.1   11.9   11.9  1019.0  0.00  0.00   0.022   0.000   23.3    52   12.9   23.3   9.57  .0737    116    1    100.0    5 
22/09/18   7:25   12.1   12.1   12.1    80    8.7   2.0   WNW   0.17   6.0   WNW   12.1   11.9   11.9  1019.0  0.00  0.00   0.022   0.000   23.3    52   12.9   23.3   9.57  .0737    117    1    100.0    5 
22/09/18   7:30   12.1   12.1   12.1    80    8.7   4.0   WNW   0.33   7.0   WNW   11.7   11.9   11.6  1019.1  0.00  0.00   0.022   0.000   23.3    52   12.9   23.2   9.57  .0737    117    1    100.0    5 
22/09/18   7:35   12.1   12.1   12.1    80    8.8   3.0    NW   0.25   5.0    NW   12.1   11.9   11.9  1019.0  0.00  0.00   0.022   0.000   23.3    52   12.9   23.3   9.57  .0737    116    1    100.0    5 
22/09/18   7:40   12.2   12.2   12.1    80    8.8   2.0    NW   0.17   5.0    NW   12.2   12.0   12.0  1019.0  0.00  0.00   0.021   0.000   23.3    52   12.9   23.2   9.57  .0737    116    1    100.0    5 
22/09/18   7:45   12.2   12.2   12.2    80    8.8   1.0    NW   0.08   4.0    NW   12.2   12.0   12.0  1018.8  0.00  0.00   0.021   0.000   23.3    52   12.9   23.3   9.57  .0737    117    1    100.0    5 
79106